<?xml version="1.0" encoding="UTF-8" standalone="no" ?>
<gpx xmlns="http://www.topografix.com/GPX/1/1" xmlns:xsi="http://www.w3.org/2001/XMLSchema-instance" xsi:schemaLocation="http://www.topografix.com/GPX/1/1 http://www.topografix.com/GPX/1/1/gpx.xsd" version="1.1" creator="VisuGPX - https://www.visugpx.com">
  <metadata>
    <name>COURSE A PIED PARC DE LA TETE D OR ENTRE AMIS 11 11 2018</name>
    <desc><![CDATA[COURSE A PIED PARC DE LA TETE D OR ENTRE AMIS 11 11 2018]]></desc>
  </metadata>
  <trk>
    <name><![CDATA[COURSE A PIED PARC DE LA TETE D OR ENTRE AMIS 11 11 2018_1]]></name>
    <trkseg>
      <trkpt lat="45.77296" lon="4.8567">
        <ele>232.7</ele>
        <time>2018-11-11T10:04:47Z</time>
      </trkpt>
      <trkpt lat="45.77296" lon="4.85668">
        <ele>230.2</ele>
        <time>2018-11-11T10:04:47Z</time>
      </trkpt>
      <trkpt lat="45.77294" lon="4.85658">
        <ele>212.2</ele>
        <time>2018-11-11T10:04:52Z</time>
      </trkpt>
      <trkpt lat="45.77291" lon="4.85654">
        <ele>210.1</ele>
        <time>2018-11-11T10:04:59Z</time>
      </trkpt>
      <trkpt lat="45.77291" lon="4.85656">
        <ele>210</ele>
        <time>2018-11-11T10:05:06Z</time>
      </trkpt>
      <trkpt lat="45.77284" lon="4.85654">
        <ele>206.1</ele>
        <time>2018-11-11T10:05:13Z</time>
      </trkpt>
      <trkpt lat="45.77284" lon="4.85655">
        <ele>203.1</ele>
        <time>2018-11-11T10:05:20Z</time>
      </trkpt>
      <trkpt lat="45.7729" lon="4.8566">
        <ele>203</ele>
        <time>2018-11-11T10:05:27Z</time>
      </trkpt>
      <trkpt lat="45.77294" lon="4.8566">
        <ele>203.3</ele>
        <time>2018-11-11T10:05:34Z</time>
      </trkpt>
      <trkpt lat="45.77295" lon="4.8565">
        <ele>204.3</ele>
        <time>2018-11-11T10:05:41Z</time>
      </trkpt>
      <trkpt lat="45.77299" lon="4.85648">
        <ele>204.8</ele>
        <time>2018-11-11T10:05:48Z</time>
      </trkpt>
      <trkpt lat="45.77307" lon="4.85648">
        <ele>204.7</ele>
        <time>2018-11-11T10:05:53Z</time>
      </trkpt>
      <trkpt lat="45.77316" lon="4.85646">
        <ele>204.5</ele>
        <time>2018-11-11T10:05:57Z</time>
      </trkpt>
      <trkpt lat="45.77324" lon="4.85645">
        <ele>204.4</ele>
        <time>2018-11-11T10:06:01Z</time>
      </trkpt>
      <trkpt lat="45.77331" lon="4.85642">
        <ele>204.2</ele>
        <time>2018-11-11T10:06:05Z</time>
      </trkpt>
      <trkpt lat="45.77339" lon="4.85637">
        <ele>204</ele>
        <time>2018-11-11T10:06:11Z</time>
      </trkpt>
      <trkpt lat="45.77346" lon="4.85635">
        <ele>203.6</ele>
        <time>2018-11-11T10:06:16Z</time>
      </trkpt>
      <trkpt lat="45.77355" lon="4.85631">
        <ele>203.3</ele>
        <time>2018-11-11T10:06:21Z</time>
      </trkpt>
      <trkpt lat="45.77364" lon="4.85632">
        <ele>203.1</ele>
        <time>2018-11-11T10:06:26Z</time>
      </trkpt>
      <trkpt lat="45.77372" lon="4.85637">
        <ele>203</ele>
        <time>2018-11-11T10:06:29Z</time>
      </trkpt>
      <trkpt lat="45.77379" lon="4.85645">
        <ele>202.8</ele>
        <time>2018-11-11T10:06:32Z</time>
      </trkpt>
      <trkpt lat="45.77385" lon="4.85656">
        <ele>202.6</ele>
        <time>2018-11-11T10:06:35Z</time>
      </trkpt>
      <trkpt lat="45.77389" lon="4.85666">
        <ele>202.2</ele>
        <time>2018-11-11T10:06:40Z</time>
      </trkpt>
      <trkpt lat="45.77392" lon="4.85675">
        <ele>202</ele>
        <time>2018-11-11T10:06:43Z</time>
      </trkpt>
      <trkpt lat="45.77393" lon="4.85688">
        <ele>202.5</ele>
        <time>2018-11-11T10:06:48Z</time>
      </trkpt>
      <trkpt lat="45.77394" lon="4.85699">
        <ele>203.1</ele>
        <time>2018-11-11T10:06:52Z</time>
      </trkpt>
      <trkpt lat="45.77396" lon="4.8571">
        <ele>203.7</ele>
        <time>2018-11-11T10:06:57Z</time>
      </trkpt>
      <trkpt lat="45.77401" lon="4.85722">
        <ele>204.1</ele>
        <time>2018-11-11T10:07:03Z</time>
      </trkpt>
      <trkpt lat="45.77404" lon="4.85731">
        <ele>204.1</ele>
        <time>2018-11-11T10:07:06Z</time>
      </trkpt>
      <trkpt lat="45.77409" lon="4.85741">
        <ele>204.2</ele>
        <time>2018-11-11T10:07:10Z</time>
      </trkpt>
      <trkpt lat="45.77413" lon="4.85753">
        <ele>204.4</ele>
        <time>2018-11-11T10:07:14Z</time>
      </trkpt>
      <trkpt lat="45.77417" lon="4.85762">
        <ele>204.5</ele>
        <time>2018-11-11T10:07:18Z</time>
      </trkpt>
      <trkpt lat="45.77422" lon="4.85772">
        <ele>204.2</ele>
        <time>2018-11-11T10:07:24Z</time>
      </trkpt>
      <trkpt lat="45.77427" lon="4.8578">
        <ele>204.2</ele>
        <time>2018-11-11T10:07:28Z</time>
      </trkpt>
      <trkpt lat="45.77434" lon="4.85786">
        <ele>204.3</ele>
        <time>2018-11-11T10:07:33Z</time>
      </trkpt>
      <trkpt lat="45.77439" lon="4.85794">
        <ele>204.4</ele>
        <time>2018-11-11T10:07:36Z</time>
      </trkpt>
      <trkpt lat="45.77448" lon="4.85797">
        <ele>204.5</ele>
        <time>2018-11-11T10:07:40Z</time>
      </trkpt>
      <trkpt lat="45.77456" lon="4.85801">
        <ele>204.5</ele>
        <time>2018-11-11T10:07:44Z</time>
      </trkpt>
      <trkpt lat="45.77463" lon="4.85806">
        <ele>204.9</ele>
        <time>2018-11-11T10:07:48Z</time>
      </trkpt>
      <trkpt lat="45.77472" lon="4.85811">
        <ele>205.2</ele>
        <time>2018-11-11T10:07:52Z</time>
      </trkpt>
      <trkpt lat="45.7748" lon="4.85814">
        <ele>205.2</ele>
        <time>2018-11-11T10:07:56Z</time>
      </trkpt>
      <trkpt lat="45.77489" lon="4.85818">
        <ele>205</ele>
        <time>2018-11-11T10:08:00Z</time>
      </trkpt>
      <trkpt lat="45.77496" lon="4.85819">
        <ele>204.9</ele>
        <time>2018-11-11T10:08:03Z</time>
      </trkpt>
      <trkpt lat="45.77505" lon="4.85821">
        <ele>204.9</ele>
        <time>2018-11-11T10:08:07Z</time>
      </trkpt>
      <trkpt lat="45.77512" lon="4.85824">
        <ele>204.9</ele>
        <time>2018-11-11T10:08:11Z</time>
      </trkpt>
      <trkpt lat="45.77521" lon="4.85824">
        <ele>204.9</ele>
        <time>2018-11-11T10:08:16Z</time>
      </trkpt>
      <trkpt lat="45.77529" lon="4.85826">
        <ele>204.8</ele>
        <time>2018-11-11T10:08:19Z</time>
      </trkpt>
      <trkpt lat="45.77536" lon="4.85828">
        <ele>204.9</ele>
        <time>2018-11-11T10:08:22Z</time>
      </trkpt>
      <trkpt lat="45.77544" lon="4.8583">
        <ele>204.8</ele>
        <time>2018-11-11T10:08:26Z</time>
      </trkpt>
      <trkpt lat="45.77552" lon="4.85831">
        <ele>204.5</ele>
        <time>2018-11-11T10:08:31Z</time>
      </trkpt>
      <trkpt lat="45.7756" lon="4.85829">
        <ele>204.5</ele>
        <time>2018-11-11T10:08:35Z</time>
      </trkpt>
      <trkpt lat="45.77567" lon="4.85831">
        <ele>204.8</ele>
        <time>2018-11-11T10:08:38Z</time>
      </trkpt>
      <trkpt lat="45.77574" lon="4.85832">
        <ele>205.1</ele>
        <time>2018-11-11T10:08:42Z</time>
      </trkpt>
      <trkpt lat="45.77581" lon="4.85826">
        <ele>205.7</ele>
        <time>2018-11-11T10:08:47Z</time>
      </trkpt>
      <trkpt lat="45.77588" lon="4.85823">
        <ele>205.9</ele>
        <time>2018-11-11T10:08:53Z</time>
      </trkpt>
      <trkpt lat="45.77597" lon="4.85824">
        <ele>205.8</ele>
        <time>2018-11-11T10:08:56Z</time>
      </trkpt>
      <trkpt lat="45.77604" lon="4.85823">
        <ele>205.8</ele>
        <time>2018-11-11T10:08:59Z</time>
      </trkpt>
      <trkpt lat="45.77612" lon="4.85819">
        <ele>205.8</ele>
        <time>2018-11-11T10:09:03Z</time>
      </trkpt>
      <trkpt lat="45.7762" lon="4.8582">
        <ele>205.6</ele>
        <time>2018-11-11T10:09:07Z</time>
      </trkpt>
      <trkpt lat="45.77628" lon="4.85821">
        <ele>205.3</ele>
        <time>2018-11-11T10:09:11Z</time>
      </trkpt>
      <trkpt lat="45.77636" lon="4.85823">
        <ele>204.6</ele>
        <time>2018-11-11T10:09:16Z</time>
      </trkpt>
      <trkpt lat="45.77644" lon="4.85818">
        <ele>204</ele>
        <time>2018-11-11T10:09:20Z</time>
      </trkpt>
      <trkpt lat="45.77651" lon="4.85814">
        <ele>203.2</ele>
        <time>2018-11-11T10:09:24Z</time>
      </trkpt>
      <trkpt lat="45.77659" lon="4.85811">
        <ele>202.4</ele>
        <time>2018-11-11T10:09:28Z</time>
      </trkpt>
      <trkpt lat="45.77666" lon="4.85807">
        <ele>201.3</ele>
        <time>2018-11-11T10:09:34Z</time>
      </trkpt>
      <trkpt lat="45.77674" lon="4.85809">
        <ele>200.2</ele>
        <time>2018-11-11T10:09:41Z</time>
      </trkpt>
      <trkpt lat="45.77679" lon="4.8581">
        <ele>199.4</ele>
        <time>2018-11-11T10:09:48Z</time>
      </trkpt>
      <trkpt lat="45.77686" lon="4.85806">
        <ele>198.4</ele>
        <time>2018-11-11T10:09:55Z</time>
      </trkpt>
      <trkpt lat="45.77693" lon="4.85811">
        <ele>197.5</ele>
        <time>2018-11-11T10:09:59Z</time>
      </trkpt>
      <trkpt lat="45.777" lon="4.85815">
        <ele>196</ele>
        <time>2018-11-11T10:10:04Z</time>
      </trkpt>
      <trkpt lat="45.7771" lon="4.85818">
        <ele>194.3</ele>
        <time>2018-11-11T10:10:09Z</time>
      </trkpt>
      <trkpt lat="45.77718" lon="4.8582">
        <ele>192.6</ele>
        <time>2018-11-11T10:10:14Z</time>
      </trkpt>
      <trkpt lat="45.77729" lon="4.85822">
        <ele>191.4</ele>
        <time>2018-11-11T10:10:18Z</time>
      </trkpt>
      <trkpt lat="45.77736" lon="4.85823">
        <ele>190.6</ele>
        <time>2018-11-11T10:10:21Z</time>
      </trkpt>
      <trkpt lat="45.77743" lon="4.85827">
        <ele>189.6</ele>
        <time>2018-11-11T10:10:25Z</time>
      </trkpt>
      <trkpt lat="45.77752" lon="4.85832">
        <ele>188.6</ele>
        <time>2018-11-11T10:10:29Z</time>
      </trkpt>
      <trkpt lat="45.7776" lon="4.85835">
        <ele>187.6</ele>
        <time>2018-11-11T10:10:33Z</time>
      </trkpt>
      <trkpt lat="45.77771" lon="4.85837">
        <ele>186.8</ele>
        <time>2018-11-11T10:10:36Z</time>
      </trkpt>
      <trkpt lat="45.77781" lon="4.85839">
        <ele>186.5</ele>
        <time>2018-11-11T10:10:38Z</time>
      </trkpt>
      <trkpt lat="45.77792" lon="4.8584">
        <ele>186.4</ele>
        <time>2018-11-11T10:10:40Z</time>
      </trkpt>
      <trkpt lat="45.77802" lon="4.85842">
        <ele>186.4</ele>
        <time>2018-11-11T10:10:43Z</time>
      </trkpt>
      <trkpt lat="45.77811" lon="4.85844">
        <ele>186.5</ele>
        <time>2018-11-11T10:10:45Z</time>
      </trkpt>
      <trkpt lat="45.77819" lon="4.85847">
        <ele>187</ele>
        <time>2018-11-11T10:10:48Z</time>
      </trkpt>
      <trkpt lat="45.77829" lon="4.85848">
        <ele>187.8</ele>
        <time>2018-11-11T10:10:52Z</time>
      </trkpt>
      <trkpt lat="45.77836" lon="4.8585">
        <ele>188.5</ele>
        <time>2018-11-11T10:10:55Z</time>
      </trkpt>
      <trkpt lat="45.77843" lon="4.85852">
        <ele>189.3</ele>
        <time>2018-11-11T10:10:58Z</time>
      </trkpt>
      <trkpt lat="45.77852" lon="4.85855">
        <ele>190.3</ele>
        <time>2018-11-11T10:11:02Z</time>
      </trkpt>
      <trkpt lat="45.7786" lon="4.85857">
        <ele>191.2</ele>
        <time>2018-11-11T10:11:06Z</time>
      </trkpt>
      <trkpt lat="45.77868" lon="4.85858">
        <ele>192.3</ele>
        <time>2018-11-11T10:11:11Z</time>
      </trkpt>
      <trkpt lat="45.77876" lon="4.8586">
        <ele>193.3</ele>
        <time>2018-11-11T10:11:15Z</time>
      </trkpt>
      <trkpt lat="45.77884" lon="4.85861">
        <ele>194.1</ele>
        <time>2018-11-11T10:11:19Z</time>
      </trkpt>
      <trkpt lat="45.77893" lon="4.85861">
        <ele>195.1</ele>
        <time>2018-11-11T10:11:23Z</time>
      </trkpt>
      <trkpt lat="45.779" lon="4.85861">
        <ele>195.8</ele>
        <time>2018-11-11T10:11:26Z</time>
      </trkpt>
      <trkpt lat="45.77909" lon="4.85864">
        <ele>196.5</ele>
        <time>2018-11-11T10:11:29Z</time>
      </trkpt>
      <trkpt lat="45.77917" lon="4.85864">
        <ele>197.3</ele>
        <time>2018-11-11T10:11:32Z</time>
      </trkpt>
      <trkpt lat="45.77925" lon="4.85865">
        <ele>198.1</ele>
        <time>2018-11-11T10:11:35Z</time>
      </trkpt>
      <trkpt lat="45.77933" lon="4.85867">
        <ele>199.1</ele>
        <time>2018-11-11T10:11:39Z</time>
      </trkpt>
      <trkpt lat="45.77942" lon="4.85868">
        <ele>200</ele>
        <time>2018-11-11T10:11:43Z</time>
      </trkpt>
      <trkpt lat="45.7795" lon="4.85867">
        <ele>200.8</ele>
        <time>2018-11-11T10:11:47Z</time>
      </trkpt>
      <trkpt lat="45.77959" lon="4.85869">
        <ele>201.4</ele>
        <time>2018-11-11T10:11:51Z</time>
      </trkpt>
      <trkpt lat="45.77969" lon="4.85869">
        <ele>202.1</ele>
        <time>2018-11-11T10:11:55Z</time>
      </trkpt>
      <trkpt lat="45.77978" lon="4.85869">
        <ele>202.8</ele>
        <time>2018-11-11T10:11:59Z</time>
      </trkpt>
      <trkpt lat="45.77987" lon="4.85868">
        <ele>203.8</ele>
        <time>2018-11-11T10:12:04Z</time>
      </trkpt>
      <trkpt lat="45.77995" lon="4.85867">
        <ele>204.8</ele>
        <time>2018-11-11T10:12:09Z</time>
      </trkpt>
      <trkpt lat="45.78004" lon="4.85865">
        <ele>205.8</ele>
        <time>2018-11-11T10:12:14Z</time>
      </trkpt>
      <trkpt lat="45.78012" lon="4.85866">
        <ele>206.4</ele>
        <time>2018-11-11T10:12:17Z</time>
      </trkpt>
      <trkpt lat="45.7802" lon="4.85866">
        <ele>207.3</ele>
        <time>2018-11-11T10:12:21Z</time>
      </trkpt>
      <trkpt lat="45.78028" lon="4.85864">
        <ele>208.1</ele>
        <time>2018-11-11T10:12:24Z</time>
      </trkpt>
      <trkpt lat="45.78036" lon="4.85865">
        <ele>209.1</ele>
        <time>2018-11-11T10:12:28Z</time>
      </trkpt>
      <trkpt lat="45.78044" lon="4.85867">
        <ele>210.1</ele>
        <time>2018-11-11T10:12:32Z</time>
      </trkpt>
      <trkpt lat="45.78053" lon="4.85866">
        <ele>211</ele>
        <time>2018-11-11T10:12:36Z</time>
      </trkpt>
      <trkpt lat="45.78062" lon="4.85866">
        <ele>211.8</ele>
        <time>2018-11-11T10:12:40Z</time>
      </trkpt>
      <trkpt lat="45.78071" lon="4.85866">
        <ele>212.5</ele>
        <time>2018-11-11T10:12:44Z</time>
      </trkpt>
      <trkpt lat="45.78078" lon="4.85865">
        <ele>213.2</ele>
        <time>2018-11-11T10:12:48Z</time>
      </trkpt>
      <trkpt lat="45.78086" lon="4.85864">
        <ele>213.8</ele>
        <time>2018-11-11T10:12:53Z</time>
      </trkpt>
      <trkpt lat="45.78095" lon="4.85863">
        <ele>214.1</ele>
        <time>2018-11-11T10:12:57Z</time>
      </trkpt>
      <trkpt lat="45.78102" lon="4.85862">
        <ele>214.3</ele>
        <time>2018-11-11T10:13:01Z</time>
      </trkpt>
      <trkpt lat="45.78111" lon="4.85861">
        <ele>214.3</ele>
        <time>2018-11-11T10:13:05Z</time>
      </trkpt>
      <trkpt lat="45.7812" lon="4.8586">
        <ele>214.3</ele>
        <time>2018-11-11T10:13:08Z</time>
      </trkpt>
      <trkpt lat="45.78129" lon="4.85859">
        <ele>214.4</ele>
        <time>2018-11-11T10:13:12Z</time>
      </trkpt>
      <trkpt lat="45.78138" lon="4.85859">
        <ele>214.5</ele>
        <time>2018-11-11T10:13:15Z</time>
      </trkpt>
      <trkpt lat="45.78145" lon="4.85858">
        <ele>214.9</ele>
        <time>2018-11-11T10:13:20Z</time>
      </trkpt>
      <trkpt lat="45.78153" lon="4.85857">
        <ele>215.1</ele>
        <time>2018-11-11T10:13:24Z</time>
      </trkpt>
      <trkpt lat="45.78161" lon="4.85857">
        <ele>215.2</ele>
        <time>2018-11-11T10:13:28Z</time>
      </trkpt>
      <trkpt lat="45.78169" lon="4.85856">
        <ele>215.3</ele>
        <time>2018-11-11T10:13:32Z</time>
      </trkpt>
      <trkpt lat="45.78178" lon="4.85858">
        <ele>215.4</ele>
        <time>2018-11-11T10:13:36Z</time>
      </trkpt>
      <trkpt lat="45.78186" lon="4.85858">
        <ele>215.5</ele>
        <time>2018-11-11T10:13:40Z</time>
      </trkpt>
      <trkpt lat="45.78195" lon="4.85855">
        <ele>215.7</ele>
        <time>2018-11-11T10:13:44Z</time>
      </trkpt>
      <trkpt lat="45.78202" lon="4.85857">
        <ele>216</ele>
        <time>2018-11-11T10:13:47Z</time>
      </trkpt>
      <trkpt lat="45.7821" lon="4.85856">
        <ele>216.1</ele>
        <time>2018-11-11T10:13:50Z</time>
      </trkpt>
      <trkpt lat="45.78217" lon="4.85855">
        <ele>215.9</ele>
        <time>2018-11-11T10:13:55Z</time>
      </trkpt>
      <trkpt lat="45.78226" lon="4.8585">
        <ele>215.6</ele>
        <time>2018-11-11T10:13:59Z</time>
      </trkpt>
      <trkpt lat="45.78233" lon="4.85846">
        <ele>215.4</ele>
        <time>2018-11-11T10:14:02Z</time>
      </trkpt>
      <trkpt lat="45.78241" lon="4.85839">
        <ele>215.2</ele>
        <time>2018-11-11T10:14:06Z</time>
      </trkpt>
      <trkpt lat="45.78248" lon="4.85832">
        <ele>214.7</ele>
        <time>2018-11-11T10:14:10Z</time>
      </trkpt>
      <trkpt lat="45.78253" lon="4.85824">
        <ele>214.3</ele>
        <time>2018-11-11T10:14:13Z</time>
      </trkpt>
      <trkpt lat="45.78259" lon="4.85817">
        <ele>213.5</ele>
        <time>2018-11-11T10:14:17Z</time>
      </trkpt>
      <trkpt lat="45.78265" lon="4.8581">
        <ele>212.6</ele>
        <time>2018-11-11T10:14:21Z</time>
      </trkpt>
      <trkpt lat="45.78272" lon="4.85811">
        <ele>211.8</ele>
        <time>2018-11-11T10:14:25Z</time>
      </trkpt>
      <trkpt lat="45.7828" lon="4.85816">
        <ele>211.2</ele>
        <time>2018-11-11T10:14:28Z</time>
      </trkpt>
      <trkpt lat="45.78287" lon="4.85821">
        <ele>210.5</ele>
        <time>2018-11-11T10:14:32Z</time>
      </trkpt>
      <trkpt lat="45.78295" lon="4.85826">
        <ele>210</ele>
        <time>2018-11-11T10:14:36Z</time>
      </trkpt>
      <trkpt lat="45.78302" lon="4.85831">
        <ele>209.6</ele>
        <time>2018-11-11T10:14:40Z</time>
      </trkpt>
      <trkpt lat="45.78308" lon="4.85837">
        <ele>209.4</ele>
        <time>2018-11-11T10:14:43Z</time>
      </trkpt>
      <trkpt lat="45.78316" lon="4.85843">
        <ele>209.2</ele>
        <time>2018-11-11T10:14:47Z</time>
      </trkpt>
      <trkpt lat="45.78324" lon="4.8585">
        <ele>209</ele>
        <time>2018-11-11T10:14:50Z</time>
      </trkpt>
      <trkpt lat="45.7833" lon="4.85857">
        <ele>208.7</ele>
        <time>2018-11-11T10:14:53Z</time>
      </trkpt>
      <trkpt lat="45.78337" lon="4.85865">
        <ele>208.4</ele>
        <time>2018-11-11T10:14:57Z</time>
      </trkpt>
      <trkpt lat="45.78346" lon="4.85869">
        <ele>208.2</ele>
        <time>2018-11-11T10:15:01Z</time>
      </trkpt>
      <trkpt lat="45.78353" lon="4.85874">
        <ele>208.2</ele>
        <time>2018-11-11T10:15:05Z</time>
      </trkpt>
      <trkpt lat="45.7836" lon="4.85877">
        <ele>208.3</ele>
        <time>2018-11-11T10:15:09Z</time>
      </trkpt>
      <trkpt lat="45.78367" lon="4.8588">
        <ele>208.6</ele>
        <time>2018-11-11T10:15:14Z</time>
      </trkpt>
      <trkpt lat="45.78374" lon="4.85883">
        <ele>208.9</ele>
        <time>2018-11-11T10:15:18Z</time>
      </trkpt>
      <trkpt lat="45.78382" lon="4.85884">
        <ele>209.3</ele>
        <time>2018-11-11T10:15:22Z</time>
      </trkpt>
      <trkpt lat="45.78389" lon="4.85889">
        <ele>209.4</ele>
        <time>2018-11-11T10:15:25Z</time>
      </trkpt>
      <trkpt lat="45.78399" lon="4.85891">
        <ele>209.2</ele>
        <time>2018-11-11T10:15:29Z</time>
      </trkpt>
      <trkpt lat="45.78408" lon="4.85891">
        <ele>208.7</ele>
        <time>2018-11-11T10:15:34Z</time>
      </trkpt>
      <trkpt lat="45.78415" lon="4.8589">
        <ele>208.4</ele>
        <time>2018-11-11T10:15:38Z</time>
      </trkpt>
      <trkpt lat="45.78425" lon="4.85896">
        <ele>207.9</ele>
        <time>2018-11-11T10:15:42Z</time>
      </trkpt>
      <trkpt lat="45.78434" lon="4.859">
        <ele>207.6</ele>
        <time>2018-11-11T10:15:45Z</time>
      </trkpt>
      <trkpt lat="45.78441" lon="4.85901">
        <ele>207.5</ele>
        <time>2018-11-11T10:15:48Z</time>
      </trkpt>
      <trkpt lat="45.78449" lon="4.85898">
        <ele>207.5</ele>
        <time>2018-11-11T10:15:52Z</time>
      </trkpt>
      <trkpt lat="45.7845" lon="4.85885">
        <ele>207.9</ele>
        <time>2018-11-11T10:15:57Z</time>
      </trkpt>
      <trkpt lat="45.78451" lon="4.85871">
        <ele>208.6</ele>
        <time>2018-11-11T10:16:01Z</time>
      </trkpt>
      <trkpt lat="45.78454" lon="4.8586">
        <ele>209.2</ele>
        <time>2018-11-11T10:16:05Z</time>
      </trkpt>
      <trkpt lat="45.78456" lon="4.85849">
        <ele>209.7</ele>
        <time>2018-11-11T10:16:09Z</time>
      </trkpt>
      <trkpt lat="45.78458" lon="4.85835">
        <ele>210.1</ele>
        <time>2018-11-11T10:16:13Z</time>
      </trkpt>
      <trkpt lat="45.78462" lon="4.85825">
        <ele>210.4</ele>
        <time>2018-11-11T10:16:19Z</time>
      </trkpt>
      <trkpt lat="45.78461" lon="4.85813">
        <ele>210.1</ele>
        <time>2018-11-11T10:16:25Z</time>
      </trkpt>
      <trkpt lat="45.78462" lon="4.85801">
        <ele>209.2</ele>
        <time>2018-11-11T10:16:29Z</time>
      </trkpt>
      <trkpt lat="45.78463" lon="4.85791">
        <ele>208.4</ele>
        <time>2018-11-11T10:16:33Z</time>
      </trkpt>
      <trkpt lat="45.78462" lon="4.85779">
        <ele>207.7</ele>
        <time>2018-11-11T10:16:37Z</time>
      </trkpt>
      <trkpt lat="45.78457" lon="4.85768">
        <ele>207.1</ele>
        <time>2018-11-11T10:16:42Z</time>
      </trkpt>
      <trkpt lat="45.78453" lon="4.85759">
        <ele>206.8</ele>
        <time>2018-11-11T10:16:46Z</time>
      </trkpt>
      <trkpt lat="45.78449" lon="4.85747">
        <ele>206.7</ele>
        <time>2018-11-11T10:16:49Z</time>
      </trkpt>
      <trkpt lat="45.78445" lon="4.85737">
        <ele>206.5</ele>
        <time>2018-11-11T10:16:52Z</time>
      </trkpt>
      <trkpt lat="45.78441" lon="4.85728">
        <ele>206.4</ele>
        <time>2018-11-11T10:16:56Z</time>
      </trkpt>
      <trkpt lat="45.78437" lon="4.85714">
        <ele>206.1</ele>
        <time>2018-11-11T10:17:02Z</time>
      </trkpt>
      <trkpt lat="45.78434" lon="4.85703">
        <ele>205.7</ele>
        <time>2018-11-11T10:17:05Z</time>
      </trkpt>
      <trkpt lat="45.78431" lon="4.85692">
        <ele>205.2</ele>
        <time>2018-11-11T10:17:09Z</time>
      </trkpt>
      <trkpt lat="45.78428" lon="4.85682">
        <ele>205</ele>
        <time>2018-11-11T10:17:11Z</time>
      </trkpt>
      <trkpt lat="45.78424" lon="4.85672">
        <ele>205.1</ele>
        <time>2018-11-11T10:17:13Z</time>
      </trkpt>
      <trkpt lat="45.7842" lon="4.85663">
        <ele>205.4</ele>
        <time>2018-11-11T10:17:15Z</time>
      </trkpt>
      <trkpt lat="45.78416" lon="4.85653">
        <ele>206</ele>
        <time>2018-11-11T10:17:17Z</time>
      </trkpt>
      <trkpt lat="45.78411" lon="4.85644">
        <ele>206.6</ele>
        <time>2018-11-11T10:17:19Z</time>
      </trkpt>
      <trkpt lat="45.78407" lon="4.85635">
        <ele>207.6</ele>
        <time>2018-11-11T10:17:22Z</time>
      </trkpt>
      <trkpt lat="45.78405" lon="4.85625">
        <ele>208.9</ele>
        <time>2018-11-11T10:17:26Z</time>
      </trkpt>
      <trkpt lat="45.78405" lon="4.85614">
        <ele>209.7</ele>
        <time>2018-11-11T10:17:29Z</time>
      </trkpt>
      <trkpt lat="45.78409" lon="4.85603">
        <ele>210.6</ele>
        <time>2018-11-11T10:17:33Z</time>
      </trkpt>
      <trkpt lat="45.78415" lon="4.85595">
        <ele>211.2</ele>
        <time>2018-11-11T10:17:38Z</time>
      </trkpt>
      <trkpt lat="45.7842" lon="4.85586">
        <ele>211.6</ele>
        <time>2018-11-11T10:17:42Z</time>
      </trkpt>
      <trkpt lat="45.78424" lon="4.85574">
        <ele>211.9</ele>
        <time>2018-11-11T10:17:46Z</time>
      </trkpt>
      <trkpt lat="45.78428" lon="4.85563">
        <ele>212.1</ele>
        <time>2018-11-11T10:17:50Z</time>
      </trkpt>
      <trkpt lat="45.78432" lon="4.85553">
        <ele>212.2</ele>
        <time>2018-11-11T10:17:53Z</time>
      </trkpt>
      <trkpt lat="45.78434" lon="4.85542">
        <ele>212.4</ele>
        <time>2018-11-11T10:17:58Z</time>
      </trkpt>
      <trkpt lat="45.78435" lon="4.8553">
        <ele>212.5</ele>
        <time>2018-11-11T10:18:02Z</time>
      </trkpt>
      <trkpt lat="45.78435" lon="4.8552">
        <ele>212.8</ele>
        <time>2018-11-11T10:18:06Z</time>
      </trkpt>
      <trkpt lat="45.78432" lon="4.85507">
        <ele>213.2</ele>
        <time>2018-11-11T10:18:11Z</time>
      </trkpt>
      <trkpt lat="45.78429" lon="4.85496">
        <ele>213.5</ele>
        <time>2018-11-11T10:18:15Z</time>
      </trkpt>
      <trkpt lat="45.78427" lon="4.85486">
        <ele>214</ele>
        <time>2018-11-11T10:18:19Z</time>
      </trkpt>
      <trkpt lat="45.78424" lon="4.85474">
        <ele>214.4</ele>
        <time>2018-11-11T10:18:23Z</time>
      </trkpt>
      <trkpt lat="45.78421" lon="4.85462">
        <ele>215.1</ele>
        <time>2018-11-11T10:18:27Z</time>
      </trkpt>
      <trkpt lat="45.78419" lon="4.85451">
        <ele>215.6</ele>
        <time>2018-11-11T10:18:31Z</time>
      </trkpt>
      <trkpt lat="45.78416" lon="4.8544">
        <ele>216.1</ele>
        <time>2018-11-11T10:18:35Z</time>
      </trkpt>
      <trkpt lat="45.78413" lon="4.85429">
        <ele>216.5</ele>
        <time>2018-11-11T10:18:39Z</time>
      </trkpt>
      <trkpt lat="45.78408" lon="4.85418">
        <ele>216.9</ele>
        <time>2018-11-11T10:18:43Z</time>
      </trkpt>
      <trkpt lat="45.78403" lon="4.85406">
        <ele>217.3</ele>
        <time>2018-11-11T10:18:47Z</time>
      </trkpt>
      <trkpt lat="45.78401" lon="4.85394">
        <ele>217.6</ele>
        <time>2018-11-11T10:18:52Z</time>
      </trkpt>
      <trkpt lat="45.78398" lon="4.85384">
        <ele>217.8</ele>
        <time>2018-11-11T10:18:56Z</time>
      </trkpt>
      <trkpt lat="45.78395" lon="4.85373">
        <ele>218.1</ele>
        <time>2018-11-11T10:19:00Z</time>
      </trkpt>
      <trkpt lat="45.78392" lon="4.85361">
        <ele>218.2</ele>
        <time>2018-11-11T10:19:04Z</time>
      </trkpt>
      <trkpt lat="45.78389" lon="4.85351">
        <ele>218.3</ele>
        <time>2018-11-11T10:19:08Z</time>
      </trkpt>
      <trkpt lat="45.78386" lon="4.85341">
        <ele>218.5</ele>
        <time>2018-11-11T10:19:13Z</time>
      </trkpt>
      <trkpt lat="45.78382" lon="4.85331">
        <ele>218.7</ele>
        <time>2018-11-11T10:19:17Z</time>
      </trkpt>
      <trkpt lat="45.78377" lon="4.85319">
        <ele>218.9</ele>
        <time>2018-11-11T10:19:21Z</time>
      </trkpt>
      <trkpt lat="45.78373" lon="4.8531">
        <ele>219</ele>
        <time>2018-11-11T10:19:25Z</time>
      </trkpt>
      <trkpt lat="45.78369" lon="4.85298">
        <ele>219.1</ele>
        <time>2018-11-11T10:19:29Z</time>
      </trkpt>
      <trkpt lat="45.78364" lon="4.85289">
        <ele>219.3</ele>
        <time>2018-11-11T10:19:34Z</time>
      </trkpt>
      <trkpt lat="45.7836" lon="4.85278">
        <ele>219.6</ele>
        <time>2018-11-11T10:19:39Z</time>
      </trkpt>
      <trkpt lat="45.78358" lon="4.85267">
        <ele>219.6</ele>
        <time>2018-11-11T10:19:43Z</time>
      </trkpt>
      <trkpt lat="45.78353" lon="4.85256">
        <ele>219.3</ele>
        <time>2018-11-11T10:19:48Z</time>
      </trkpt>
      <trkpt lat="45.78349" lon="4.85246">
        <ele>218.8</ele>
        <time>2018-11-11T10:19:52Z</time>
      </trkpt>
      <trkpt lat="45.78345" lon="4.85237">
        <ele>218.6</ele>
        <time>2018-11-11T10:19:55Z</time>
      </trkpt>
      <trkpt lat="45.78339" lon="4.85228">
        <ele>218.5</ele>
        <time>2018-11-11T10:19:58Z</time>
      </trkpt>
      <trkpt lat="45.78334" lon="4.85219">
        <ele>218.3</ele>
        <time>2018-11-11T10:20:04Z</time>
      </trkpt>
      <trkpt lat="45.78329" lon="4.85208">
        <ele>218.1</ele>
        <time>2018-11-11T10:20:09Z</time>
      </trkpt>
      <trkpt lat="45.78324" lon="4.85198">
        <ele>217.9</ele>
        <time>2018-11-11T10:20:14Z</time>
      </trkpt>
      <trkpt lat="45.78318" lon="4.85189">
        <ele>217.7</ele>
        <time>2018-11-11T10:20:18Z</time>
      </trkpt>
      <trkpt lat="45.78313" lon="4.85181">
        <ele>217.4</ele>
        <time>2018-11-11T10:20:21Z</time>
      </trkpt>
      <trkpt lat="45.78309" lon="4.85171">
        <ele>217.2</ele>
        <time>2018-11-11T10:20:25Z</time>
      </trkpt>
      <trkpt lat="45.78303" lon="4.85163">
        <ele>217.1</ele>
        <time>2018-11-11T10:20:28Z</time>
      </trkpt>
      <trkpt lat="45.78298" lon="4.85153">
        <ele>217</ele>
        <time>2018-11-11T10:20:32Z</time>
      </trkpt>
      <trkpt lat="45.78293" lon="4.85144">
        <ele>216.8</ele>
        <time>2018-11-11T10:20:36Z</time>
      </trkpt>
      <trkpt lat="45.78289" lon="4.85136">
        <ele>216.4</ele>
        <time>2018-11-11T10:20:40Z</time>
      </trkpt>
      <trkpt lat="45.78283" lon="4.85127">
        <ele>215.9</ele>
        <time>2018-11-11T10:20:45Z</time>
      </trkpt>
      <trkpt lat="45.78279" lon="4.85119">
        <ele>215.6</ele>
        <time>2018-11-11T10:20:48Z</time>
      </trkpt>
      <trkpt lat="45.78273" lon="4.85108">
        <ele>215.4</ele>
        <time>2018-11-11T10:20:51Z</time>
      </trkpt>
      <trkpt lat="45.78267" lon="4.85098">
        <ele>215.3</ele>
        <time>2018-11-11T10:20:56Z</time>
      </trkpt>
      <trkpt lat="45.78263" lon="4.85089">
        <ele>215.2</ele>
        <time>2018-11-11T10:21:00Z</time>
      </trkpt>
      <trkpt lat="45.78256" lon="4.85078">
        <ele>214.8</ele>
        <time>2018-11-11T10:21:06Z</time>
      </trkpt>
      <trkpt lat="45.78251" lon="4.8507">
        <ele>214.6</ele>
        <time>2018-11-11T10:21:09Z</time>
      </trkpt>
      <trkpt lat="45.78247" lon="4.8506">
        <ele>214.3</ele>
        <time>2018-11-11T10:21:13Z</time>
      </trkpt>
      <trkpt lat="45.78242" lon="4.8505">
        <ele>214</ele>
        <time>2018-11-11T10:21:17Z</time>
      </trkpt>
      <trkpt lat="45.78239" lon="4.85041">
        <ele>213.9</ele>
        <time>2018-11-11T10:21:20Z</time>
      </trkpt>
      <trkpt lat="45.78236" lon="4.85029">
        <ele>213.7</ele>
        <time>2018-11-11T10:21:25Z</time>
      </trkpt>
      <trkpt lat="45.7823" lon="4.85019">
        <ele>213.5</ele>
        <time>2018-11-11T10:21:30Z</time>
      </trkpt>
      <trkpt lat="45.78224" lon="4.85011">
        <ele>213.5</ele>
        <time>2018-11-11T10:21:34Z</time>
      </trkpt>
      <trkpt lat="45.78217" lon="4.85003">
        <ele>213.5</ele>
        <time>2018-11-11T10:21:38Z</time>
      </trkpt>
      <trkpt lat="45.7821" lon="4.84997">
        <ele>213.6</ele>
        <time>2018-11-11T10:21:42Z</time>
      </trkpt>
      <trkpt lat="45.78203" lon="4.8499">
        <ele>213.7</ele>
        <time>2018-11-11T10:21:46Z</time>
      </trkpt>
      <trkpt lat="45.78196" lon="4.84985">
        <ele>213.8</ele>
        <time>2018-11-11T10:21:50Z</time>
      </trkpt>
      <trkpt lat="45.78188" lon="4.84978">
        <ele>213.7</ele>
        <time>2018-11-11T10:21:54Z</time>
      </trkpt>
      <trkpt lat="45.7818" lon="4.84979">
        <ele>213.6</ele>
        <time>2018-11-11T10:21:58Z</time>
      </trkpt>
      <trkpt lat="45.78171" lon="4.84981">
        <ele>213.5</ele>
        <time>2018-11-11T10:22:02Z</time>
      </trkpt>
      <trkpt lat="45.78164" lon="4.84984">
        <ele>213.2</ele>
        <time>2018-11-11T10:22:06Z</time>
      </trkpt>
      <trkpt lat="45.78156" lon="4.84987">
        <ele>212.8</ele>
        <time>2018-11-11T10:22:11Z</time>
      </trkpt>
      <trkpt lat="45.78148" lon="4.84986">
        <ele>212.2</ele>
        <time>2018-11-11T10:22:16Z</time>
      </trkpt>
      <trkpt lat="45.78142" lon="4.84979">
        <ele>211.7</ele>
        <time>2018-11-11T10:22:20Z</time>
      </trkpt>
      <trkpt lat="45.78138" lon="4.8497">
        <ele>210.8</ele>
        <time>2018-11-11T10:22:26Z</time>
      </trkpt>
      <trkpt lat="45.78137" lon="4.84958">
        <ele>210.4</ele>
        <time>2018-11-11T10:22:31Z</time>
      </trkpt>
      <trkpt lat="45.78137" lon="4.84945">
        <ele>210</ele>
        <time>2018-11-11T10:22:35Z</time>
      </trkpt>
      <trkpt lat="45.78139" lon="4.84933">
        <ele>209.8</ele>
        <time>2018-11-11T10:22:38Z</time>
      </trkpt>
      <trkpt lat="45.7814" lon="4.84919">
        <ele>209.6</ele>
        <time>2018-11-11T10:22:44Z</time>
      </trkpt>
      <trkpt lat="45.78139" lon="4.84906">
        <ele>209.7</ele>
        <time>2018-11-11T10:22:47Z</time>
      </trkpt>
      <trkpt lat="45.78137" lon="4.84894">
        <ele>209.9</ele>
        <time>2018-11-11T10:22:51Z</time>
      </trkpt>
      <trkpt lat="45.78135" lon="4.84883">
        <ele>210</ele>
        <time>2018-11-11T10:22:54Z</time>
      </trkpt>
      <trkpt lat="45.78135" lon="4.84872">
        <ele>210</ele>
        <time>2018-11-11T10:22:58Z</time>
      </trkpt>
      <trkpt lat="45.78135" lon="4.84861">
        <ele>210.1</ele>
        <time>2018-11-11T10:23:03Z</time>
      </trkpt>
      <trkpt lat="45.78133" lon="4.84851">
        <ele>210.1</ele>
        <time>2018-11-11T10:23:08Z</time>
      </trkpt>
      <trkpt lat="45.78128" lon="4.8484">
        <ele>210</ele>
        <time>2018-11-11T10:23:14Z</time>
      </trkpt>
      <trkpt lat="45.78121" lon="4.84832">
        <ele>209.7</ele>
        <time>2018-11-11T10:23:18Z</time>
      </trkpt>
      <trkpt lat="45.78116" lon="4.84825">
        <ele>209.2</ele>
        <time>2018-11-11T10:23:22Z</time>
      </trkpt>
      <trkpt lat="45.7811" lon="4.84819">
        <ele>208.6</ele>
        <time>2018-11-11T10:23:26Z</time>
      </trkpt>
      <trkpt lat="45.78103" lon="4.84814">
        <ele>208.1</ele>
        <time>2018-11-11T10:23:29Z</time>
      </trkpt>
      <trkpt lat="45.78097" lon="4.84809">
        <ele>207.7</ele>
        <time>2018-11-11T10:23:31Z</time>
      </trkpt>
      <trkpt lat="45.78089" lon="4.848">
        <ele>207.2</ele>
        <time>2018-11-11T10:23:34Z</time>
      </trkpt>
      <trkpt lat="45.78084" lon="4.84794">
        <ele>206.7</ele>
        <time>2018-11-11T10:23:37Z</time>
      </trkpt>
      <trkpt lat="45.78077" lon="4.84785">
        <ele>205.8</ele>
        <time>2018-11-11T10:23:42Z</time>
      </trkpt>
      <trkpt lat="45.78069" lon="4.84777">
        <ele>205.4</ele>
        <time>2018-11-11T10:23:45Z</time>
      </trkpt>
      <trkpt lat="45.78064" lon="4.8477">
        <ele>205</ele>
        <time>2018-11-11T10:23:49Z</time>
      </trkpt>
      <trkpt lat="45.78058" lon="4.84761">
        <ele>204.6</ele>
        <time>2018-11-11T10:23:53Z</time>
      </trkpt>
      <trkpt lat="45.78051" lon="4.84753">
        <ele>204.3</ele>
        <time>2018-11-11T10:23:57Z</time>
      </trkpt>
      <trkpt lat="45.78044" lon="4.84744">
        <ele>204</ele>
        <time>2018-11-11T10:24:01Z</time>
      </trkpt>
      <trkpt lat="45.78037" lon="4.84735">
        <ele>203.5</ele>
        <time>2018-11-11T10:24:05Z</time>
      </trkpt>
      <trkpt lat="45.7803" lon="4.84727">
        <ele>203.3</ele>
        <time>2018-11-11T10:24:08Z</time>
      </trkpt>
      <trkpt lat="45.78023" lon="4.84719">
        <ele>202.9</ele>
        <time>2018-11-11T10:24:12Z</time>
      </trkpt>
      <trkpt lat="45.78017" lon="4.84712">
        <ele>202.7</ele>
        <time>2018-11-11T10:24:16Z</time>
      </trkpt>
      <trkpt lat="45.7801" lon="4.84704">
        <ele>202.6</ele>
        <time>2018-11-11T10:24:20Z</time>
      </trkpt>
      <trkpt lat="45.78003" lon="4.84695">
        <ele>202.6</ele>
        <time>2018-11-11T10:24:23Z</time>
      </trkpt>
      <trkpt lat="45.77996" lon="4.84688">
        <ele>202.8</ele>
        <time>2018-11-11T10:24:26Z</time>
      </trkpt>
      <trkpt lat="45.7799" lon="4.84681">
        <ele>203.1</ele>
        <time>2018-11-11T10:24:29Z</time>
      </trkpt>
      <trkpt lat="45.77982" lon="4.84675">
        <ele>203.6</ele>
        <time>2018-11-11T10:24:34Z</time>
      </trkpt>
      <trkpt lat="45.77975" lon="4.8467">
        <ele>204.3</ele>
        <time>2018-11-11T10:24:38Z</time>
      </trkpt>
      <trkpt lat="45.77967" lon="4.84662">
        <ele>205</ele>
        <time>2018-11-11T10:24:42Z</time>
      </trkpt>
      <trkpt lat="45.77961" lon="4.84656">
        <ele>205.5</ele>
        <time>2018-11-11T10:24:45Z</time>
      </trkpt>
      <trkpt lat="45.77954" lon="4.84648">
        <ele>206.2</ele>
        <time>2018-11-11T10:24:49Z</time>
      </trkpt>
      <trkpt lat="45.77946" lon="4.84642">
        <ele>207</ele>
        <time>2018-11-11T10:24:53Z</time>
      </trkpt>
      <trkpt lat="45.77939" lon="4.84637">
        <ele>207.7</ele>
        <time>2018-11-11T10:24:57Z</time>
      </trkpt>
      <trkpt lat="45.77932" lon="4.8463">
        <ele>208.5</ele>
        <time>2018-11-11T10:25:01Z</time>
      </trkpt>
      <trkpt lat="45.77925" lon="4.84624">
        <ele>209.1</ele>
        <time>2018-11-11T10:25:04Z</time>
      </trkpt>
      <trkpt lat="45.77918" lon="4.84618">
        <ele>209.6</ele>
        <time>2018-11-11T10:25:08Z</time>
      </trkpt>
      <trkpt lat="45.77911" lon="4.8461">
        <ele>210</ele>
        <time>2018-11-11T10:25:12Z</time>
      </trkpt>
      <trkpt lat="45.77904" lon="4.84603">
        <ele>210.2</ele>
        <time>2018-11-11T10:25:16Z</time>
      </trkpt>
      <trkpt lat="45.77897" lon="4.84598">
        <ele>210.5</ele>
        <time>2018-11-11T10:25:20Z</time>
      </trkpt>
      <trkpt lat="45.7789" lon="4.84593">
        <ele>210.8</ele>
        <time>2018-11-11T10:25:23Z</time>
      </trkpt>
      <trkpt lat="45.77883" lon="4.84587">
        <ele>211.3</ele>
        <time>2018-11-11T10:25:28Z</time>
      </trkpt>
      <trkpt lat="45.77875" lon="4.84581">
        <ele>211.7</ele>
        <time>2018-11-11T10:25:32Z</time>
      </trkpt>
      <trkpt lat="45.77868" lon="4.84574">
        <ele>212</ele>
        <time>2018-11-11T10:25:37Z</time>
      </trkpt>
      <trkpt lat="45.77861" lon="4.84568">
        <ele>211.9</ele>
        <time>2018-11-11T10:25:41Z</time>
      </trkpt>
      <trkpt lat="45.77853" lon="4.84562">
        <ele>211.8</ele>
        <time>2018-11-11T10:25:45Z</time>
      </trkpt>
      <trkpt lat="45.77846" lon="4.84556">
        <ele>211.6</ele>
        <time>2018-11-11T10:25:49Z</time>
      </trkpt>
      <trkpt lat="45.77839" lon="4.8455">
        <ele>211.5</ele>
        <time>2018-11-11T10:25:52Z</time>
      </trkpt>
      <trkpt lat="45.77832" lon="4.84543">
        <ele>211.5</ele>
        <time>2018-11-11T10:25:55Z</time>
      </trkpt>
      <trkpt lat="45.77826" lon="4.84537">
        <ele>211.4</ele>
        <time>2018-11-11T10:25:58Z</time>
      </trkpt>
      <trkpt lat="45.77819" lon="4.8453">
        <ele>211.4</ele>
        <time>2018-11-11T10:26:01Z</time>
      </trkpt>
      <trkpt lat="45.77813" lon="4.84525">
        <ele>211.3</ele>
        <time>2018-11-11T10:26:05Z</time>
      </trkpt>
      <trkpt lat="45.77805" lon="4.84519">
        <ele>211.4</ele>
        <time>2018-11-11T10:26:10Z</time>
      </trkpt>
      <trkpt lat="45.77797" lon="4.84513">
        <ele>211.5</ele>
        <time>2018-11-11T10:26:14Z</time>
      </trkpt>
      <trkpt lat="45.7779" lon="4.84509">
        <ele>211.6</ele>
        <time>2018-11-11T10:26:17Z</time>
      </trkpt>
      <trkpt lat="45.77782" lon="4.84504">
        <ele>211.6</ele>
        <time>2018-11-11T10:26:21Z</time>
      </trkpt>
      <trkpt lat="45.77774" lon="4.84502">
        <ele>211.6</ele>
        <time>2018-11-11T10:26:25Z</time>
      </trkpt>
      <trkpt lat="45.77766" lon="4.84504">
        <ele>211.4</ele>
        <time>2018-11-11T10:26:29Z</time>
      </trkpt>
      <trkpt lat="45.77758" lon="4.84508">
        <ele>211.2</ele>
        <time>2018-11-11T10:26:33Z</time>
      </trkpt>
      <trkpt lat="45.7775" lon="4.84512">
        <ele>211</ele>
        <time>2018-11-11T10:26:37Z</time>
      </trkpt>
      <trkpt lat="45.77743" lon="4.84517">
        <ele>210.7</ele>
        <time>2018-11-11T10:26:41Z</time>
      </trkpt>
      <trkpt lat="45.77736" lon="4.84524">
        <ele>210.6</ele>
        <time>2018-11-11T10:26:45Z</time>
      </trkpt>
      <trkpt lat="45.77731" lon="4.84532">
        <ele>210.7</ele>
        <time>2018-11-11T10:26:48Z</time>
      </trkpt>
      <trkpt lat="45.77724" lon="4.84539">
        <ele>210.8</ele>
        <time>2018-11-11T10:26:52Z</time>
      </trkpt>
      <trkpt lat="45.77717" lon="4.84544">
        <ele>211</ele>
        <time>2018-11-11T10:26:57Z</time>
      </trkpt>
      <trkpt lat="45.77709" lon="4.84549">
        <ele>210.9</ele>
        <time>2018-11-11T10:27:01Z</time>
      </trkpt>
      <trkpt lat="45.77703" lon="4.84556">
        <ele>210.7</ele>
        <time>2018-11-11T10:27:05Z</time>
      </trkpt>
      <trkpt lat="45.77698" lon="4.84565">
        <ele>210.7</ele>
        <time>2018-11-11T10:27:09Z</time>
      </trkpt>
      <trkpt lat="45.77693" lon="4.84573">
        <ele>210.5</ele>
        <time>2018-11-11T10:27:13Z</time>
      </trkpt>
      <trkpt lat="45.77686" lon="4.84582">
        <ele>210.4</ele>
        <time>2018-11-11T10:27:18Z</time>
      </trkpt>
      <trkpt lat="45.77681" lon="4.8459">
        <ele>210.3</ele>
        <time>2018-11-11T10:27:22Z</time>
      </trkpt>
      <trkpt lat="45.77676" lon="4.84599">
        <ele>210.3</ele>
        <time>2018-11-11T10:27:26Z</time>
      </trkpt>
      <trkpt lat="45.77672" lon="4.84608">
        <ele>210.2</ele>
        <time>2018-11-11T10:27:30Z</time>
      </trkpt>
      <trkpt lat="45.77667" lon="4.84618">
        <ele>210.3</ele>
        <time>2018-11-11T10:27:34Z</time>
      </trkpt>
      <trkpt lat="45.77661" lon="4.84629">
        <ele>210.5</ele>
        <time>2018-11-11T10:27:37Z</time>
      </trkpt>
      <trkpt lat="45.77656" lon="4.84638">
        <ele>210.6</ele>
        <time>2018-11-11T10:27:40Z</time>
      </trkpt>
      <trkpt lat="45.7765" lon="4.84649">
        <ele>210.8</ele>
        <time>2018-11-11T10:27:44Z</time>
      </trkpt>
      <trkpt lat="45.77645" lon="4.8466">
        <ele>211</ele>
        <time>2018-11-11T10:27:48Z</time>
      </trkpt>
      <trkpt lat="45.7764" lon="4.8467">
        <ele>211.3</ele>
        <time>2018-11-11T10:27:52Z</time>
      </trkpt>
      <trkpt lat="45.77634" lon="4.8468">
        <ele>211.5</ele>
        <time>2018-11-11T10:27:56Z</time>
      </trkpt>
      <trkpt lat="45.77628" lon="4.84689">
        <ele>211.7</ele>
        <time>2018-11-11T10:28:00Z</time>
      </trkpt>
      <trkpt lat="45.77624" lon="4.84699">
        <ele>211.8</ele>
        <time>2018-11-11T10:28:04Z</time>
      </trkpt>
      <trkpt lat="45.77617" lon="4.84709">
        <ele>212</ele>
        <time>2018-11-11T10:28:08Z</time>
      </trkpt>
      <trkpt lat="45.77611" lon="4.84719">
        <ele>212.2</ele>
        <time>2018-11-11T10:28:12Z</time>
      </trkpt>
      <trkpt lat="45.77606" lon="4.84728">
        <ele>212.5</ele>
        <time>2018-11-11T10:28:16Z</time>
      </trkpt>
      <trkpt lat="45.77602" lon="4.84737">
        <ele>212.6</ele>
        <time>2018-11-11T10:28:19Z</time>
      </trkpt>
      <trkpt lat="45.77598" lon="4.84747">
        <ele>212.7</ele>
        <time>2018-11-11T10:28:23Z</time>
      </trkpt>
      <trkpt lat="45.77594" lon="4.84757">
        <ele>212.8</ele>
        <time>2018-11-11T10:28:26Z</time>
      </trkpt>
      <trkpt lat="45.7759" lon="4.84768">
        <ele>213</ele>
        <time>2018-11-11T10:28:30Z</time>
      </trkpt>
      <trkpt lat="45.77584" lon="4.8478">
        <ele>213.2</ele>
        <time>2018-11-11T10:28:35Z</time>
      </trkpt>
      <trkpt lat="45.77579" lon="4.8479">
        <ele>213.4</ele>
        <time>2018-11-11T10:28:39Z</time>
      </trkpt>
      <trkpt lat="45.77574" lon="4.84798">
        <ele>213.4</ele>
        <time>2018-11-11T10:28:43Z</time>
      </trkpt>
      <trkpt lat="45.77568" lon="4.84808">
        <ele>213.3</ele>
        <time>2018-11-11T10:28:47Z</time>
      </trkpt>
      <trkpt lat="45.77564" lon="4.84816">
        <ele>213.2</ele>
        <time>2018-11-11T10:28:51Z</time>
      </trkpt>
      <trkpt lat="45.77559" lon="4.84826">
        <ele>213.1</ele>
        <time>2018-11-11T10:28:55Z</time>
      </trkpt>
      <trkpt lat="45.77553" lon="4.84835">
        <ele>213</ele>
        <time>2018-11-11T10:28:59Z</time>
      </trkpt>
      <trkpt lat="45.77549" lon="4.84845">
        <ele>212.9</ele>
        <time>2018-11-11T10:29:03Z</time>
      </trkpt>
      <trkpt lat="45.77547" lon="4.84854">
        <ele>212.8</ele>
        <time>2018-11-11T10:29:10Z</time>
      </trkpt>
      <trkpt lat="45.77545" lon="4.84865">
        <ele>212.5</ele>
        <time>2018-11-11T10:29:22Z</time>
      </trkpt>
      <trkpt lat="45.77541" lon="4.84876">
        <ele>212.5</ele>
        <time>2018-11-11T10:29:26Z</time>
      </trkpt>
      <trkpt lat="45.77537" lon="4.84885">
        <ele>212.5</ele>
        <time>2018-11-11T10:29:30Z</time>
      </trkpt>
      <trkpt lat="45.77533" lon="4.84897">
        <ele>212.5</ele>
        <time>2018-11-11T10:29:35Z</time>
      </trkpt>
      <trkpt lat="45.77529" lon="4.84908">
        <ele>212.6</ele>
        <time>2018-11-11T10:29:39Z</time>
      </trkpt>
      <trkpt lat="45.77525" lon="4.84917">
        <ele>212.8</ele>
        <time>2018-11-11T10:29:43Z</time>
      </trkpt>
      <trkpt lat="45.77521" lon="4.84928">
        <ele>213</ele>
        <time>2018-11-11T10:29:47Z</time>
      </trkpt>
      <trkpt lat="45.77516" lon="4.84939">
        <ele>213.2</ele>
        <time>2018-11-11T10:29:51Z</time>
      </trkpt>
      <trkpt lat="45.77513" lon="4.8495">
        <ele>213.4</ele>
        <time>2018-11-11T10:29:55Z</time>
      </trkpt>
      <trkpt lat="45.77507" lon="4.8496">
        <ele>213.6</ele>
        <time>2018-11-11T10:29:59Z</time>
      </trkpt>
      <trkpt lat="45.77503" lon="4.84971">
        <ele>213.6</ele>
        <time>2018-11-11T10:30:03Z</time>
      </trkpt>
      <trkpt lat="45.77498" lon="4.84981">
        <ele>213.6</ele>
        <time>2018-11-11T10:30:07Z</time>
      </trkpt>
      <trkpt lat="45.77494" lon="4.84991">
        <ele>213.6</ele>
        <time>2018-11-11T10:30:11Z</time>
      </trkpt>
      <trkpt lat="45.77489" lon="4.85002">
        <ele>213.5</ele>
        <time>2018-11-11T10:30:15Z</time>
      </trkpt>
      <trkpt lat="45.77484" lon="4.85012">
        <ele>213.5</ele>
        <time>2018-11-11T10:30:19Z</time>
      </trkpt>
      <trkpt lat="45.77477" lon="4.85022">
        <ele>213.5</ele>
        <time>2018-11-11T10:30:23Z</time>
      </trkpt>
      <trkpt lat="45.77473" lon="4.85032">
        <ele>213.5</ele>
        <time>2018-11-11T10:30:27Z</time>
      </trkpt>
      <trkpt lat="45.77468" lon="4.85042">
        <ele>213.5</ele>
        <time>2018-11-11T10:30:31Z</time>
      </trkpt>
      <trkpt lat="45.77463" lon="4.85052">
        <ele>213.4</ele>
        <time>2018-11-11T10:30:35Z</time>
      </trkpt>
      <trkpt lat="45.77458" lon="4.85063">
        <ele>213.3</ele>
        <time>2018-11-11T10:30:39Z</time>
      </trkpt>
      <trkpt lat="45.77454" lon="4.85073">
        <ele>213.3</ele>
        <time>2018-11-11T10:30:43Z</time>
      </trkpt>
      <trkpt lat="45.77451" lon="4.85085">
        <ele>213.2</ele>
        <time>2018-11-11T10:30:47Z</time>
      </trkpt>
      <trkpt lat="45.77447" lon="4.85097">
        <ele>213.1</ele>
        <time>2018-11-11T10:30:51Z</time>
      </trkpt>
      <trkpt lat="45.77443" lon="4.85105">
        <ele>213</ele>
        <time>2018-11-11T10:30:54Z</time>
      </trkpt>
      <trkpt lat="45.77439" lon="4.85114">
        <ele>212.9</ele>
        <time>2018-11-11T10:30:57Z</time>
      </trkpt>
      <trkpt lat="45.77433" lon="4.85124">
        <ele>212.8</ele>
        <time>2018-11-11T10:31:01Z</time>
      </trkpt>
      <trkpt lat="45.77429" lon="4.85132">
        <ele>212.7</ele>
        <time>2018-11-11T10:31:05Z</time>
      </trkpt>
      <trkpt lat="45.77423" lon="4.8514">
        <ele>212.5</ele>
        <time>2018-11-11T10:31:08Z</time>
      </trkpt>
      <trkpt lat="45.77416" lon="4.85147">
        <ele>212.5</ele>
        <time>2018-11-11T10:31:12Z</time>
      </trkpt>
      <trkpt lat="45.77408" lon="4.8515">
        <ele>212.5</ele>
        <time>2018-11-11T10:31:16Z</time>
      </trkpt>
      <trkpt lat="45.77399" lon="4.85149">
        <ele>212.5</ele>
        <time>2018-11-11T10:31:20Z</time>
      </trkpt>
      <trkpt lat="45.77392" lon="4.85152">
        <ele>212.6</ele>
        <time>2018-11-11T10:31:24Z</time>
      </trkpt>
      <trkpt lat="45.77383" lon="4.85153">
        <ele>212.7</ele>
        <time>2018-11-11T10:31:28Z</time>
      </trkpt>
      <trkpt lat="45.77374" lon="4.85154">
        <ele>212.9</ele>
        <time>2018-11-11T10:31:32Z</time>
      </trkpt>
      <trkpt lat="45.77367" lon="4.85156">
        <ele>212.8</ele>
        <time>2018-11-11T10:31:36Z</time>
      </trkpt>
      <trkpt lat="45.77359" lon="4.85163">
        <ele>212.8</ele>
        <time>2018-11-11T10:31:40Z</time>
      </trkpt>
      <trkpt lat="45.77353" lon="4.8517">
        <ele>212.7</ele>
        <time>2018-11-11T10:31:43Z</time>
      </trkpt>
      <trkpt lat="45.77348" lon="4.85179">
        <ele>212.6</ele>
        <time>2018-11-11T10:31:46Z</time>
      </trkpt>
      <trkpt lat="45.77344" lon="4.8519">
        <ele>212.5</ele>
        <time>2018-11-11T10:31:50Z</time>
      </trkpt>
      <trkpt lat="45.77341" lon="4.852">
        <ele>212.4</ele>
        <time>2018-11-11T10:31:54Z</time>
      </trkpt>
      <trkpt lat="45.77339" lon="4.85211">
        <ele>212.3</ele>
        <time>2018-11-11T10:31:59Z</time>
      </trkpt>
      <trkpt lat="45.77338" lon="4.85223">
        <ele>212.3</ele>
        <time>2018-11-11T10:32:04Z</time>
      </trkpt>
      <trkpt lat="45.77339" lon="4.85235">
        <ele>212.3</ele>
        <time>2018-11-11T10:32:07Z</time>
      </trkpt>
      <trkpt lat="45.77341" lon="4.85245">
        <ele>212.2</ele>
        <time>2018-11-11T10:32:10Z</time>
      </trkpt>
      <trkpt lat="45.7734" lon="4.85256">
        <ele>212.1</ele>
        <time>2018-11-11T10:32:13Z</time>
      </trkpt>
      <trkpt lat="45.77338" lon="4.85269">
        <ele>212.1</ele>
        <time>2018-11-11T10:32:17Z</time>
      </trkpt>
      <trkpt lat="45.77334" lon="4.85283">
        <ele>211.9</ele>
        <time>2018-11-11T10:32:22Z</time>
      </trkpt>
      <trkpt lat="45.7733" lon="4.85295">
        <ele>211.7</ele>
        <time>2018-11-11T10:32:26Z</time>
      </trkpt>
      <trkpt lat="45.77328" lon="4.85304">
        <ele>211.5</ele>
        <time>2018-11-11T10:32:30Z</time>
      </trkpt>
      <trkpt lat="45.77323" lon="4.85315">
        <ele>211.1</ele>
        <time>2018-11-11T10:32:35Z</time>
      </trkpt>
      <trkpt lat="45.77318" lon="4.85326">
        <ele>211</ele>
        <time>2018-11-11T10:32:39Z</time>
      </trkpt>
      <trkpt lat="45.77314" lon="4.85337">
        <ele>210.8</ele>
        <time>2018-11-11T10:32:43Z</time>
      </trkpt>
      <trkpt lat="45.77311" lon="4.85347">
        <ele>210.7</ele>
        <time>2018-11-11T10:32:46Z</time>
      </trkpt>
      <trkpt lat="45.77307" lon="4.85359">
        <ele>210.7</ele>
        <time>2018-11-11T10:32:50Z</time>
      </trkpt>
      <trkpt lat="45.77303" lon="4.85369">
        <ele>210.6</ele>
        <time>2018-11-11T10:32:54Z</time>
      </trkpt>
      <trkpt lat="45.77297" lon="4.8538">
        <ele>210.2</ele>
        <time>2018-11-11T10:32:58Z</time>
      </trkpt>
      <trkpt lat="45.77293" lon="4.85391">
        <ele>209.7</ele>
        <time>2018-11-11T10:33:01Z</time>
      </trkpt>
      <trkpt lat="45.7729" lon="4.854">
        <ele>209.3</ele>
        <time>2018-11-11T10:33:04Z</time>
      </trkpt>
      <trkpt lat="45.77288" lon="4.85411">
        <ele>208.9</ele>
        <time>2018-11-11T10:33:08Z</time>
      </trkpt>
      <trkpt lat="45.77288" lon="4.85423">
        <ele>208.6</ele>
        <time>2018-11-11T10:33:13Z</time>
      </trkpt>
      <trkpt lat="45.77296" lon="4.85431">
        <ele>208.6</ele>
        <time>2018-11-11T10:33:17Z</time>
      </trkpt>
      <trkpt lat="45.77302" lon="4.85439">
        <ele>208.8</ele>
        <time>2018-11-11T10:33:20Z</time>
      </trkpt>
      <trkpt lat="45.77308" lon="4.85448">
        <ele>209.1</ele>
        <time>2018-11-11T10:33:23Z</time>
      </trkpt>
      <trkpt lat="45.77314" lon="4.85458">
        <ele>209.6</ele>
        <time>2018-11-11T10:33:27Z</time>
      </trkpt>
      <trkpt lat="45.7732" lon="4.85466">
        <ele>210.2</ele>
        <time>2018-11-11T10:33:31Z</time>
      </trkpt>
      <trkpt lat="45.77325" lon="4.85474">
        <ele>210.8</ele>
        <time>2018-11-11T10:33:35Z</time>
      </trkpt>
      <trkpt lat="45.77332" lon="4.85482">
        <ele>211.3</ele>
        <time>2018-11-11T10:33:39Z</time>
      </trkpt>
      <trkpt lat="45.77338" lon="4.85488">
        <ele>211.9</ele>
        <time>2018-11-11T10:33:43Z</time>
      </trkpt>
      <trkpt lat="45.77344" lon="4.85496">
        <ele>212.5</ele>
        <time>2018-11-11T10:33:49Z</time>
      </trkpt>
      <trkpt lat="45.77345" lon="4.85506">
        <ele>212.8</ele>
        <time>2018-11-11T10:33:56Z</time>
      </trkpt>
      <trkpt lat="45.77348" lon="4.85519">
        <ele>212.8</ele>
        <time>2018-11-11T10:34:00Z</time>
      </trkpt>
      <trkpt lat="45.7735" lon="4.85529">
        <ele>212.4</ele>
        <time>2018-11-11T10:34:04Z</time>
      </trkpt>
      <trkpt lat="45.77351" lon="4.8554">
        <ele>212.1</ele>
        <time>2018-11-11T10:34:07Z</time>
      </trkpt>
      <trkpt lat="45.77351" lon="4.85553">
        <ele>212.1</ele>
        <time>2018-11-11T10:34:10Z</time>
      </trkpt>
      <trkpt lat="45.77351" lon="4.85566">
        <ele>212.1</ele>
        <time>2018-11-11T10:34:14Z</time>
      </trkpt>
      <trkpt lat="45.77353" lon="4.85576">
        <ele>212.3</ele>
        <time>2018-11-11T10:34:17Z</time>
      </trkpt>
      <trkpt lat="45.77355" lon="4.85588">
        <ele>212.4</ele>
        <time>2018-11-11T10:34:20Z</time>
      </trkpt>
      <trkpt lat="45.77356" lon="4.85598">
        <ele>212.6</ele>
        <time>2018-11-11T10:34:23Z</time>
      </trkpt>
      <trkpt lat="45.7736" lon="4.85609">
        <ele>212.8</ele>
        <time>2018-11-11T10:34:27Z</time>
      </trkpt>
      <trkpt lat="45.77361" lon="4.85622">
        <ele>212.9</ele>
        <time>2018-11-11T10:34:31Z</time>
      </trkpt>
      <trkpt lat="45.77361" lon="4.85631">
        <ele>213</ele>
        <time>2018-11-11T10:34:38Z</time>
      </trkpt>
      <trkpt lat="45.77369" lon="4.85642">
        <ele>214.8</ele>
        <time>2018-11-11T10:38:06Z</time>
      </trkpt>
      <trkpt lat="45.77377" lon="4.85647">
        <ele>215.1</ele>
        <time>2018-11-11T10:38:10Z</time>
      </trkpt>
      <trkpt lat="45.77382" lon="4.85655">
        <ele>215.2</ele>
        <time>2018-11-11T10:38:13Z</time>
      </trkpt>
      <trkpt lat="45.77384" lon="4.85667">
        <ele>215</ele>
        <time>2018-11-11T10:38:18Z</time>
      </trkpt>
      <trkpt lat="45.77385" lon="4.85679">
        <ele>214.6</ele>
        <time>2018-11-11T10:38:22Z</time>
      </trkpt>
      <trkpt lat="45.77387" lon="4.85692">
        <ele>214.5</ele>
        <time>2018-11-11T10:38:26Z</time>
      </trkpt>
      <trkpt lat="45.77388" lon="4.85705">
        <ele>214.6</ele>
        <time>2018-11-11T10:38:30Z</time>
      </trkpt>
      <trkpt lat="45.7739" lon="4.85715">
        <ele>214.5</ele>
        <time>2018-11-11T10:38:34Z</time>
      </trkpt>
      <trkpt lat="45.77394" lon="4.85732">
        <ele>214.3</ele>
        <time>2018-11-11T10:38:40Z</time>
      </trkpt>
      <trkpt lat="45.77396" lon="4.85744">
        <ele>214.3</ele>
        <time>2018-11-11T10:38:44Z</time>
      </trkpt>
      <trkpt lat="45.774" lon="4.85755">
        <ele>214.3</ele>
        <time>2018-11-11T10:38:48Z</time>
      </trkpt>
      <trkpt lat="45.77405" lon="4.85765">
        <ele>214.3</ele>
        <time>2018-11-11T10:38:53Z</time>
      </trkpt>
      <trkpt lat="45.77409" lon="4.85774">
        <ele>214.3</ele>
        <time>2018-11-11T10:38:56Z</time>
      </trkpt>
      <trkpt lat="45.77415" lon="4.85784">
        <ele>214.3</ele>
        <time>2018-11-11T10:39:01Z</time>
      </trkpt>
      <trkpt lat="45.77421" lon="4.85793">
        <ele>214.2</ele>
        <time>2018-11-11T10:39:04Z</time>
      </trkpt>
      <trkpt lat="45.77427" lon="4.85803">
        <ele>214.1</ele>
        <time>2018-11-11T10:39:07Z</time>
      </trkpt>
      <trkpt lat="45.77432" lon="4.85809">
        <ele>214</ele>
        <time>2018-11-11T10:39:10Z</time>
      </trkpt>
      <trkpt lat="45.77441" lon="4.85814">
        <ele>213.8</ele>
        <time>2018-11-11T10:39:14Z</time>
      </trkpt>
      <trkpt lat="45.77449" lon="4.85816">
        <ele>213.7</ele>
        <time>2018-11-11T10:39:17Z</time>
      </trkpt>
      <trkpt lat="45.77456" lon="4.85821">
        <ele>213.8</ele>
        <time>2018-11-11T10:39:21Z</time>
      </trkpt>
      <trkpt lat="45.77465" lon="4.85824">
        <ele>213.9</ele>
        <time>2018-11-11T10:39:25Z</time>
      </trkpt>
      <trkpt lat="45.77473" lon="4.85826">
        <ele>214.1</ele>
        <time>2018-11-11T10:39:32Z</time>
      </trkpt>
      <trkpt lat="45.77481" lon="4.85828">
        <ele>214.2</ele>
        <time>2018-11-11T10:39:37Z</time>
      </trkpt>
      <trkpt lat="45.77491" lon="4.85831">
        <ele>213.9</ele>
        <time>2018-11-11T10:39:42Z</time>
      </trkpt>
      <trkpt lat="45.77498" lon="4.85833">
        <ele>213.6</ele>
        <time>2018-11-11T10:39:46Z</time>
      </trkpt>
      <trkpt lat="45.77507" lon="4.85838">
        <ele>213.7</ele>
        <time>2018-11-11T10:39:50Z</time>
      </trkpt>
      <trkpt lat="45.77515" lon="4.8584">
        <ele>214.2</ele>
        <time>2018-11-11T10:39:54Z</time>
      </trkpt>
      <trkpt lat="45.77524" lon="4.8584">
        <ele>215.3</ele>
        <time>2018-11-11T10:40:00Z</time>
      </trkpt>
      <trkpt lat="45.77533" lon="4.85836">
        <ele>216.3</ele>
        <time>2018-11-11T10:40:04Z</time>
      </trkpt>
      <trkpt lat="45.7754" lon="4.85836">
        <ele>217.5</ele>
        <time>2018-11-11T10:40:08Z</time>
      </trkpt>
      <trkpt lat="45.77548" lon="4.85838">
        <ele>218.6</ele>
        <time>2018-11-11T10:40:12Z</time>
      </trkpt>
      <trkpt lat="45.77558" lon="4.85837">
        <ele>219.8</ele>
        <time>2018-11-11T10:40:17Z</time>
      </trkpt>
      <trkpt lat="45.77566" lon="4.85836">
        <ele>220.3</ele>
        <time>2018-11-11T10:40:21Z</time>
      </trkpt>
      <trkpt lat="45.77575" lon="4.85834">
        <ele>220.8</ele>
        <time>2018-11-11T10:40:25Z</time>
      </trkpt>
      <trkpt lat="45.77584" lon="4.85833">
        <ele>221.1</ele>
        <time>2018-11-11T10:40:29Z</time>
      </trkpt>
      <trkpt lat="45.77593" lon="4.85833">
        <ele>221.1</ele>
        <time>2018-11-11T10:40:33Z</time>
      </trkpt>
      <trkpt lat="45.77601" lon="4.85834">
        <ele>220.8</ele>
        <time>2018-11-11T10:40:40Z</time>
      </trkpt>
      <trkpt lat="45.7761" lon="4.85834">
        <ele>220.6</ele>
        <time>2018-11-11T10:40:44Z</time>
      </trkpt>
      <trkpt lat="45.77618" lon="4.85834">
        <ele>220.4</ele>
        <time>2018-11-11T10:40:47Z</time>
      </trkpt>
      <trkpt lat="45.77625" lon="4.85835">
        <ele>220</ele>
        <time>2018-11-11T10:40:50Z</time>
      </trkpt>
      <trkpt lat="45.77634" lon="4.85835">
        <ele>219.8</ele>
        <time>2018-11-11T10:40:53Z</time>
      </trkpt>
      <trkpt lat="45.77642" lon="4.85834">
        <ele>219.5</ele>
        <time>2018-11-11T10:40:57Z</time>
      </trkpt>
      <trkpt lat="45.77652" lon="4.85838">
        <ele>219</ele>
        <time>2018-11-11T10:41:00Z</time>
      </trkpt>
      <trkpt lat="45.7766" lon="4.85837">
        <ele>218.4</ele>
        <time>2018-11-11T10:41:04Z</time>
      </trkpt>
      <trkpt lat="45.77668" lon="4.85838">
        <ele>218.1</ele>
        <time>2018-11-11T10:41:08Z</time>
      </trkpt>
      <trkpt lat="45.77676" lon="4.85839">
        <ele>217.8</ele>
        <time>2018-11-11T10:41:12Z</time>
      </trkpt>
      <trkpt lat="45.77683" lon="4.85842">
        <ele>217.5</ele>
        <time>2018-11-11T10:41:15Z</time>
      </trkpt>
      <trkpt lat="45.77691" lon="4.85842">
        <ele>217.3</ele>
        <time>2018-11-11T10:41:18Z</time>
      </trkpt>
      <trkpt lat="45.77698" lon="4.85843">
        <ele>216.9</ele>
        <time>2018-11-11T10:41:21Z</time>
      </trkpt>
      <trkpt lat="45.77705" lon="4.85849">
        <ele>216.7</ele>
        <time>2018-11-11T10:41:24Z</time>
      </trkpt>
      <trkpt lat="45.77715" lon="4.8585">
        <ele>216.7</ele>
        <time>2018-11-11T10:41:29Z</time>
      </trkpt>
      <trkpt lat="45.77723" lon="4.85849">
        <ele>216.8</ele>
        <time>2018-11-11T10:41:32Z</time>
      </trkpt>
      <trkpt lat="45.7773" lon="4.85849">
        <ele>216.8</ele>
        <time>2018-11-11T10:41:36Z</time>
      </trkpt>
      <trkpt lat="45.77739" lon="4.85849">
        <ele>216.8</ele>
        <time>2018-11-11T10:41:41Z</time>
      </trkpt>
      <trkpt lat="45.77747" lon="4.85848">
        <ele>216.8</ele>
        <time>2018-11-11T10:41:45Z</time>
      </trkpt>
      <trkpt lat="45.77755" lon="4.85844">
        <ele>217.1</ele>
        <time>2018-11-11T10:41:50Z</time>
      </trkpt>
      <trkpt lat="45.77761" lon="4.85836">
        <ele>217.1</ele>
        <time>2018-11-11T10:41:53Z</time>
      </trkpt>
      <trkpt lat="45.77769" lon="4.85832">
        <ele>216.7</ele>
        <time>2018-11-11T10:41:56Z</time>
      </trkpt>
      <trkpt lat="45.77776" lon="4.85835">
        <ele>216</ele>
        <time>2018-11-11T10:42:01Z</time>
      </trkpt>
      <trkpt lat="45.77783" lon="4.85837">
        <ele>215.5</ele>
        <time>2018-11-11T10:42:06Z</time>
      </trkpt>
      <trkpt lat="45.77793" lon="4.85838">
        <ele>215</ele>
        <time>2018-11-11T10:42:10Z</time>
      </trkpt>
      <trkpt lat="45.77801" lon="4.85842">
        <ele>214.4</ele>
        <time>2018-11-11T10:42:13Z</time>
      </trkpt>
      <trkpt lat="45.7781" lon="4.85845">
        <ele>213.9</ele>
        <time>2018-11-11T10:42:16Z</time>
      </trkpt>
      <trkpt lat="45.77819" lon="4.85849">
        <ele>213.8</ele>
        <time>2018-11-11T10:42:19Z</time>
      </trkpt>
      <trkpt lat="45.77827" lon="4.85853">
        <ele>213.8</ele>
        <time>2018-11-11T10:42:22Z</time>
      </trkpt>
      <trkpt lat="45.77834" lon="4.85853">
        <ele>213.8</ele>
        <time>2018-11-11T10:42:25Z</time>
      </trkpt>
      <trkpt lat="45.77843" lon="4.85856">
        <ele>213.9</ele>
        <time>2018-11-11T10:42:29Z</time>
      </trkpt>
      <trkpt lat="45.77851" lon="4.85858">
        <ele>213.9</ele>
        <time>2018-11-11T10:42:33Z</time>
      </trkpt>
      <trkpt lat="45.77859" lon="4.85861">
        <ele>214.3</ele>
        <time>2018-11-11T10:42:38Z</time>
      </trkpt>
      <trkpt lat="45.77867" lon="4.8586">
        <ele>214.7</ele>
        <time>2018-11-11T10:42:43Z</time>
      </trkpt>
      <trkpt lat="45.77876" lon="4.85858">
        <ele>214.8</ele>
        <time>2018-11-11T10:42:47Z</time>
      </trkpt>
      <trkpt lat="45.77886" lon="4.8586">
        <ele>214.9</ele>
        <time>2018-11-11T10:42:52Z</time>
      </trkpt>
      <trkpt lat="45.77893" lon="4.8586">
        <ele>215.2</ele>
        <time>2018-11-11T10:42:55Z</time>
      </trkpt>
      <trkpt lat="45.77902" lon="4.85861">
        <ele>215.8</ele>
        <time>2018-11-11T10:42:59Z</time>
      </trkpt>
      <trkpt lat="45.77912" lon="4.85863">
        <ele>216.2</ele>
        <time>2018-11-11T10:43:03Z</time>
      </trkpt>
      <trkpt lat="45.77919" lon="4.85866">
        <ele>216.9</ele>
        <time>2018-11-11T10:43:08Z</time>
      </trkpt>
      <trkpt lat="45.77926" lon="4.85866">
        <ele>217.2</ele>
        <time>2018-11-11T10:43:11Z</time>
      </trkpt>
      <trkpt lat="45.77937" lon="4.8587">
        <ele>217.7</ele>
        <time>2018-11-11T10:43:15Z</time>
      </trkpt>
      <trkpt lat="45.77947" lon="4.85871">
        <ele>218</ele>
        <time>2018-11-11T10:43:18Z</time>
      </trkpt>
      <trkpt lat="45.77956" lon="4.85872">
        <ele>218.4</ele>
        <time>2018-11-11T10:43:22Z</time>
      </trkpt>
      <trkpt lat="45.77964" lon="4.85872">
        <ele>218.6</ele>
        <time>2018-11-11T10:43:25Z</time>
      </trkpt>
      <trkpt lat="45.77972" lon="4.85871">
        <ele>218.7</ele>
        <time>2018-11-11T10:43:28Z</time>
      </trkpt>
      <trkpt lat="45.77981" lon="4.85871">
        <ele>218.6</ele>
        <time>2018-11-11T10:43:32Z</time>
      </trkpt>
      <trkpt lat="45.7799" lon="4.85868">
        <ele>218.3</ele>
        <time>2018-11-11T10:43:36Z</time>
      </trkpt>
      <trkpt lat="45.77998" lon="4.85869">
        <ele>218.2</ele>
        <time>2018-11-11T10:43:40Z</time>
      </trkpt>
      <trkpt lat="45.78006" lon="4.85872">
        <ele>218.1</ele>
        <time>2018-11-11T10:43:44Z</time>
      </trkpt>
      <trkpt lat="45.78013" lon="4.85874">
        <ele>218.1</ele>
        <time>2018-11-11T10:43:47Z</time>
      </trkpt>
      <trkpt lat="45.78021" lon="4.85874">
        <ele>218.2</ele>
        <time>2018-11-11T10:43:50Z</time>
      </trkpt>
      <trkpt lat="45.78028" lon="4.85874">
        <ele>218.3</ele>
        <time>2018-11-11T10:43:56Z</time>
      </trkpt>
      <trkpt lat="45.78036" lon="4.85872">
        <ele>218.4</ele>
        <time>2018-11-11T10:44:02Z</time>
      </trkpt>
      <trkpt lat="45.78045" lon="4.85872">
        <ele>218.5</ele>
        <time>2018-11-11T10:44:05Z</time>
      </trkpt>
      <trkpt lat="45.78053" lon="4.8587">
        <ele>218.5</ele>
        <time>2018-11-11T10:44:09Z</time>
      </trkpt>
      <trkpt lat="45.78062" lon="4.85869">
        <ele>218.4</ele>
        <time>2018-11-11T10:44:12Z</time>
      </trkpt>
      <trkpt lat="45.78071" lon="4.85869">
        <ele>218.2</ele>
        <time>2018-11-11T10:44:15Z</time>
      </trkpt>
      <trkpt lat="45.78078" lon="4.85867">
        <ele>218.2</ele>
        <time>2018-11-11T10:44:21Z</time>
      </trkpt>
      <trkpt lat="45.78084" lon="4.85865">
        <ele>218.3</ele>
        <time>2018-11-11T10:44:28Z</time>
      </trkpt>
      <trkpt lat="45.78089" lon="4.85866">
        <ele>218</ele>
        <time>2018-11-11T10:44:45Z</time>
      </trkpt>
      <trkpt lat="45.78098" lon="4.85866">
        <ele>217.5</ele>
        <time>2018-11-11T10:44:49Z</time>
      </trkpt>
      <trkpt lat="45.78106" lon="4.85865">
        <ele>217</ele>
        <time>2018-11-11T10:44:53Z</time>
      </trkpt>
      <trkpt lat="45.78114" lon="4.85864">
        <ele>216.7</ele>
        <time>2018-11-11T10:44:56Z</time>
      </trkpt>
      <trkpt lat="45.78121" lon="4.85867">
        <ele>216.3</ele>
        <time>2018-11-11T10:45:02Z</time>
      </trkpt>
      <trkpt lat="45.78123" lon="4.8587">
        <ele>216</ele>
        <time>2018-11-11T10:45:09Z</time>
      </trkpt>
      <trkpt lat="45.78125" lon="4.85875">
        <ele>216.9</ele>
        <time>2018-11-11T10:45:37Z</time>
      </trkpt>
      <trkpt lat="45.78123" lon="4.85862">
        <ele>218.9</ele>
        <time>2018-11-11T10:47:01Z</time>
      </trkpt>
      <trkpt lat="45.78125" lon="4.8585">
        <ele>218.7</ele>
        <time>2018-11-11T10:47:04Z</time>
      </trkpt>
      <trkpt lat="45.78125" lon="4.85839">
        <ele>218.4</ele>
        <time>2018-11-11T10:47:07Z</time>
      </trkpt>
      <trkpt lat="45.78122" lon="4.85828">
        <ele>218.1</ele>
        <time>2018-11-11T10:47:10Z</time>
      </trkpt>
      <trkpt lat="45.78119" lon="4.85818">
        <ele>217.7</ele>
        <time>2018-11-11T10:47:13Z</time>
      </trkpt>
      <trkpt lat="45.78116" lon="4.85808">
        <ele>217.4</ele>
        <time>2018-11-11T10:47:16Z</time>
      </trkpt>
      <trkpt lat="45.78111" lon="4.85797">
        <ele>217.1</ele>
        <time>2018-11-11T10:47:20Z</time>
      </trkpt>
      <trkpt lat="45.78106" lon="4.85785">
        <ele>216.8</ele>
        <time>2018-11-11T10:47:25Z</time>
      </trkpt>
      <trkpt lat="45.78102" lon="4.85776">
        <ele>216.7</ele>
        <time>2018-11-11T10:47:29Z</time>
      </trkpt>
      <trkpt lat="45.78097" lon="4.85764">
        <ele>216.7</ele>
        <time>2018-11-11T10:47:33Z</time>
      </trkpt>
      <trkpt lat="45.78093" lon="4.85755">
        <ele>216.8</ele>
        <time>2018-11-11T10:47:37Z</time>
      </trkpt>
      <trkpt lat="45.78089" lon="4.85746">
        <ele>216.8</ele>
        <time>2018-11-11T10:47:41Z</time>
      </trkpt>
      <trkpt lat="45.78084" lon="4.85735">
        <ele>216.9</ele>
        <time>2018-11-11T10:47:45Z</time>
      </trkpt>
      <trkpt lat="45.78079" lon="4.85725">
        <ele>217</ele>
        <time>2018-11-11T10:47:49Z</time>
      </trkpt>
      <trkpt lat="45.78075" lon="4.85714">
        <ele>216.9</ele>
        <time>2018-11-11T10:47:53Z</time>
      </trkpt>
      <trkpt lat="45.7807" lon="4.85704">
        <ele>216.8</ele>
        <time>2018-11-11T10:47:57Z</time>
      </trkpt>
      <trkpt lat="45.78066" lon="4.85694">
        <ele>216.5</ele>
        <time>2018-11-11T10:48:01Z</time>
      </trkpt>
      <trkpt lat="45.78062" lon="4.85683">
        <ele>216.2</ele>
        <time>2018-11-11T10:48:06Z</time>
      </trkpt>
      <trkpt lat="45.78059" lon="4.8567">
        <ele>215.9</ele>
        <time>2018-11-11T10:48:11Z</time>
      </trkpt>
      <trkpt lat="45.78059" lon="4.85658">
        <ele>215.5</ele>
        <time>2018-11-11T10:48:15Z</time>
      </trkpt>
      <trkpt lat="45.78052" lon="4.85648">
        <ele>215.1</ele>
        <time>2018-11-11T10:48:20Z</time>
      </trkpt>
      <trkpt lat="45.78045" lon="4.85642">
        <ele>214.8</ele>
        <time>2018-11-11T10:48:24Z</time>
      </trkpt>
      <trkpt lat="45.7805" lon="4.85636">
        <ele>214.6</ele>
        <time>2018-11-11T10:48:31Z</time>
      </trkpt>
      <trkpt lat="45.78057" lon="4.85631">
        <ele>214.3</ele>
        <time>2018-11-11T10:48:36Z</time>
      </trkpt>
      <trkpt lat="45.78064" lon="4.85626">
        <ele>213.9</ele>
        <time>2018-11-11T10:48:40Z</time>
      </trkpt>
      <trkpt lat="45.78072" lon="4.85625">
        <ele>213.8</ele>
        <time>2018-11-11T10:48:43Z</time>
      </trkpt>
      <trkpt lat="45.7808" lon="4.85623">
        <ele>213.7</ele>
        <time>2018-11-11T10:48:47Z</time>
      </trkpt>
      <trkpt lat="45.78087" lon="4.85621">
        <ele>213.7</ele>
        <time>2018-11-11T10:48:51Z</time>
      </trkpt>
      <trkpt lat="45.78096" lon="4.85618">
        <ele>213.6</ele>
        <time>2018-11-11T10:48:57Z</time>
      </trkpt>
      <trkpt lat="45.78104" lon="4.85612">
        <ele>213.5</ele>
        <time>2018-11-11T10:49:01Z</time>
      </trkpt>
      <trkpt lat="45.78112" lon="4.85607">
        <ele>213.2</ele>
        <time>2018-11-11T10:49:05Z</time>
      </trkpt>
      <trkpt lat="45.78119" lon="4.85603">
        <ele>213</ele>
        <time>2018-11-11T10:49:08Z</time>
      </trkpt>
      <trkpt lat="45.78128" lon="4.856">
        <ele>212.9</ele>
        <time>2018-11-11T10:49:11Z</time>
      </trkpt>
      <trkpt lat="45.78132" lon="4.85589">
        <ele>212.9</ele>
        <time>2018-11-11T10:49:15Z</time>
      </trkpt>
      <trkpt lat="45.78135" lon="4.85579">
        <ele>213.3</ele>
        <time>2018-11-11T10:49:19Z</time>
      </trkpt>
      <trkpt lat="45.78135" lon="4.85567">
        <ele>213.8</ele>
        <time>2018-11-11T10:49:23Z</time>
      </trkpt>
      <trkpt lat="45.78132" lon="4.85556">
        <ele>214.3</ele>
        <time>2018-11-11T10:49:26Z</time>
      </trkpt>
      <trkpt lat="45.78133" lon="4.85546">
        <ele>214.9</ele>
        <time>2018-11-11T10:49:29Z</time>
      </trkpt>
      <trkpt lat="45.78133" lon="4.85533">
        <ele>215.8</ele>
        <time>2018-11-11T10:49:33Z</time>
      </trkpt>
      <trkpt lat="45.78131" lon="4.85522">
        <ele>216.7</ele>
        <time>2018-11-11T10:49:37Z</time>
      </trkpt>
      <trkpt lat="45.78128" lon="4.85511">
        <ele>217.6</ele>
        <time>2018-11-11T10:49:43Z</time>
      </trkpt>
      <trkpt lat="45.78126" lon="4.85501">
        <ele>217.8</ele>
        <time>2018-11-11T10:49:50Z</time>
      </trkpt>
      <trkpt lat="45.78129" lon="4.85495">
        <ele>218</ele>
        <time>2018-11-11T10:49:57Z</time>
      </trkpt>
      <trkpt lat="45.78137" lon="4.85494">
        <ele>218</ele>
        <time>2018-11-11T10:50:02Z</time>
      </trkpt>
      <trkpt lat="45.78145" lon="4.85494">
        <ele>218.1</ele>
        <time>2018-11-11T10:50:07Z</time>
      </trkpt>
      <trkpt lat="45.78153" lon="4.85494">
        <ele>218.2</ele>
        <time>2018-11-11T10:50:10Z</time>
      </trkpt>
      <trkpt lat="45.7816" lon="4.85495">
        <ele>218.5</ele>
        <time>2018-11-11T10:50:13Z</time>
      </trkpt>
      <trkpt lat="45.78168" lon="4.85495">
        <ele>218.9</ele>
        <time>2018-11-11T10:50:17Z</time>
      </trkpt>
      <trkpt lat="45.78177" lon="4.85494">
        <ele>219</ele>
        <time>2018-11-11T10:50:22Z</time>
      </trkpt>
      <trkpt lat="45.78186" lon="4.85494">
        <ele>218.8</ele>
        <time>2018-11-11T10:50:27Z</time>
      </trkpt>
      <trkpt lat="45.78195" lon="4.85496">
        <ele>218.6</ele>
        <time>2018-11-11T10:50:32Z</time>
      </trkpt>
      <trkpt lat="45.78204" lon="4.85499">
        <ele>218.6</ele>
        <time>2018-11-11T10:50:36Z</time>
      </trkpt>
      <trkpt lat="45.78211" lon="4.85506">
        <ele>218.6</ele>
        <time>2018-11-11T10:50:40Z</time>
      </trkpt>
      <trkpt lat="45.78217" lon="4.85512">
        <ele>218.5</ele>
        <time>2018-11-11T10:50:43Z</time>
      </trkpt>
      <trkpt lat="45.78224" lon="4.85518">
        <ele>218.5</ele>
        <time>2018-11-11T10:50:47Z</time>
      </trkpt>
      <trkpt lat="45.78232" lon="4.85523">
        <ele>218.4</ele>
        <time>2018-11-11T10:50:51Z</time>
      </trkpt>
      <trkpt lat="45.78238" lon="4.85529">
        <ele>218.4</ele>
        <time>2018-11-11T10:50:55Z</time>
      </trkpt>
      <trkpt lat="45.78246" lon="4.85537">
        <ele>218.4</ele>
        <time>2018-11-11T10:50:59Z</time>
      </trkpt>
      <trkpt lat="45.78253" lon="4.85544">
        <ele>218.5</ele>
        <time>2018-11-11T10:51:03Z</time>
      </trkpt>
      <trkpt lat="45.7826" lon="4.85551">
        <ele>218.5</ele>
        <time>2018-11-11T10:51:07Z</time>
      </trkpt>
      <trkpt lat="45.78265" lon="4.85559">
        <ele>218.3</ele>
        <time>2018-11-11T10:51:11Z</time>
      </trkpt>
      <trkpt lat="45.78271" lon="4.85567">
        <ele>218.1</ele>
        <time>2018-11-11T10:51:15Z</time>
      </trkpt>
      <trkpt lat="45.78277" lon="4.85573">
        <ele>218.1</ele>
        <time>2018-11-11T10:51:19Z</time>
      </trkpt>
      <trkpt lat="45.78282" lon="4.85581">
        <ele>218.4</ele>
        <time>2018-11-11T10:51:24Z</time>
      </trkpt>
      <trkpt lat="45.78288" lon="4.85587">
        <ele>218.7</ele>
        <time>2018-11-11T10:51:28Z</time>
      </trkpt>
      <trkpt lat="45.78295" lon="4.85595">
        <ele>218.9</ele>
        <time>2018-11-11T10:51:32Z</time>
      </trkpt>
      <trkpt lat="45.78302" lon="4.85598">
        <ele>219.1</ele>
        <time>2018-11-11T10:51:35Z</time>
      </trkpt>
      <trkpt lat="45.78311" lon="4.85596">
        <ele>219.4</ele>
        <time>2018-11-11T10:51:39Z</time>
      </trkpt>
      <trkpt lat="45.78317" lon="4.85589">
        <ele>219.6</ele>
        <time>2018-11-11T10:51:45Z</time>
      </trkpt>
      <trkpt lat="45.78321" lon="4.85577">
        <ele>219.3</ele>
        <time>2018-11-11T10:51:49Z</time>
      </trkpt>
      <trkpt lat="45.78326" lon="4.85568">
        <ele>218.9</ele>
        <time>2018-11-11T10:51:51Z</time>
      </trkpt>
      <trkpt lat="45.7833" lon="4.85558">
        <ele>218.1</ele>
        <time>2018-11-11T10:51:54Z</time>
      </trkpt>
      <trkpt lat="45.78337" lon="4.85549">
        <ele>217.2</ele>
        <time>2018-11-11T10:51:58Z</time>
      </trkpt>
      <trkpt lat="45.78341" lon="4.85537">
        <ele>216.6</ele>
        <time>2018-11-11T10:52:02Z</time>
      </trkpt>
      <trkpt lat="45.78341" lon="4.85526">
        <ele>216.2</ele>
        <time>2018-11-11T10:52:06Z</time>
      </trkpt>
      <trkpt lat="45.78341" lon="4.85514">
        <ele>215.8</ele>
        <time>2018-11-11T10:52:11Z</time>
      </trkpt>
      <trkpt lat="45.78343" lon="4.85502">
        <ele>215.7</ele>
        <time>2018-11-11T10:52:16Z</time>
      </trkpt>
      <trkpt lat="45.78347" lon="4.85492">
        <ele>215.8</ele>
        <time>2018-11-11T10:52:19Z</time>
      </trkpt>
      <trkpt lat="45.78351" lon="4.85481">
        <ele>215.6</ele>
        <time>2018-11-11T10:52:22Z</time>
      </trkpt>
      <trkpt lat="45.78355" lon="4.8547">
        <ele>215.2</ele>
        <time>2018-11-11T10:52:28Z</time>
      </trkpt>
      <trkpt lat="45.78352" lon="4.85459">
        <ele>215</ele>
        <time>2018-11-11T10:52:32Z</time>
      </trkpt>
      <trkpt lat="45.78344" lon="4.85452">
        <ele>214.9</ele>
        <time>2018-11-11T10:52:36Z</time>
      </trkpt>
      <trkpt lat="45.78338" lon="4.85443">
        <ele>215</ele>
        <time>2018-11-11T10:52:40Z</time>
      </trkpt>
      <trkpt lat="45.7833" lon="4.85436">
        <ele>215</ele>
        <time>2018-11-11T10:52:45Z</time>
      </trkpt>
      <trkpt lat="45.78323" lon="4.85428">
        <ele>214.7</ele>
        <time>2018-11-11T10:52:49Z</time>
      </trkpt>
      <trkpt lat="45.78316" lon="4.8542">
        <ele>214.3</ele>
        <time>2018-11-11T10:52:53Z</time>
      </trkpt>
      <trkpt lat="45.78311" lon="4.85413">
        <ele>214</ele>
        <time>2018-11-11T10:52:57Z</time>
      </trkpt>
      <trkpt lat="45.78306" lon="4.85402">
        <ele>213.8</ele>
        <time>2018-11-11T10:53:02Z</time>
      </trkpt>
      <trkpt lat="45.78302" lon="4.85394">
        <ele>213.8</ele>
        <time>2018-11-11T10:53:06Z</time>
      </trkpt>
      <trkpt lat="45.78297" lon="4.85383">
        <ele>213.7</ele>
        <time>2018-11-11T10:53:10Z</time>
      </trkpt>
      <trkpt lat="45.78292" lon="4.85375">
        <ele>213.6</ele>
        <time>2018-11-11T10:53:14Z</time>
      </trkpt>
      <trkpt lat="45.78288" lon="4.85366">
        <ele>213.8</ele>
        <time>2018-11-11T10:53:18Z</time>
      </trkpt>
      <trkpt lat="45.78283" lon="4.85357">
        <ele>213.9</ele>
        <time>2018-11-11T10:53:21Z</time>
      </trkpt>
      <trkpt lat="45.78278" lon="4.85347">
        <ele>214.2</ele>
        <time>2018-11-11T10:53:25Z</time>
      </trkpt>
      <trkpt lat="45.78273" lon="4.85336">
        <ele>214.5</ele>
        <time>2018-11-11T10:53:30Z</time>
      </trkpt>
      <trkpt lat="45.78269" lon="4.85328">
        <ele>214.6</ele>
        <time>2018-11-11T10:53:34Z</time>
      </trkpt>
      <trkpt lat="45.78264" lon="4.85319">
        <ele>215</ele>
        <time>2018-11-11T10:53:39Z</time>
      </trkpt>
      <trkpt lat="45.7826" lon="4.85309">
        <ele>215.2</ele>
        <time>2018-11-11T10:53:44Z</time>
      </trkpt>
      <trkpt lat="45.78255" lon="4.85298">
        <ele>215.5</ele>
        <time>2018-11-11T10:53:49Z</time>
      </trkpt>
      <trkpt lat="45.78251" lon="4.85288">
        <ele>215.7</ele>
        <time>2018-11-11T10:53:53Z</time>
      </trkpt>
      <trkpt lat="45.78247" lon="4.85278">
        <ele>215.8</ele>
        <time>2018-11-11T10:53:57Z</time>
      </trkpt>
      <trkpt lat="45.78244" lon="4.85267">
        <ele>216</ele>
        <time>2018-11-11T10:54:01Z</time>
      </trkpt>
      <trkpt lat="45.7824" lon="4.85258">
        <ele>216</ele>
        <time>2018-11-11T10:54:05Z</time>
      </trkpt>
      <trkpt lat="45.78236" lon="4.85248">
        <ele>216.1</ele>
        <time>2018-11-11T10:54:09Z</time>
      </trkpt>
      <trkpt lat="45.78231" lon="4.85238">
        <ele>216.1</ele>
        <time>2018-11-11T10:54:13Z</time>
      </trkpt>
      <trkpt lat="45.78227" lon="4.85228">
        <ele>216</ele>
        <time>2018-11-11T10:54:17Z</time>
      </trkpt>
      <trkpt lat="45.78223" lon="4.85218">
        <ele>215.8</ele>
        <time>2018-11-11T10:54:21Z</time>
      </trkpt>
      <trkpt lat="45.78219" lon="4.85208">
        <ele>215.6</ele>
        <time>2018-11-11T10:54:25Z</time>
      </trkpt>
      <trkpt lat="45.78214" lon="4.85199">
        <ele>215.5</ele>
        <time>2018-11-11T10:54:29Z</time>
      </trkpt>
      <trkpt lat="45.78209" lon="4.85188">
        <ele>215.4</ele>
        <time>2018-11-11T10:54:33Z</time>
      </trkpt>
      <trkpt lat="45.78205" lon="4.85179">
        <ele>215.4</ele>
        <time>2018-11-11T10:54:37Z</time>
      </trkpt>
      <trkpt lat="45.78202" lon="4.8517">
        <ele>215.4</ele>
        <time>2018-11-11T10:54:41Z</time>
      </trkpt>
      <trkpt lat="45.78197" lon="4.85161">
        <ele>215.3</ele>
        <time>2018-11-11T10:54:45Z</time>
      </trkpt>
      <trkpt lat="45.78192" lon="4.85153">
        <ele>215.4</ele>
        <time>2018-11-11T10:54:49Z</time>
      </trkpt>
      <trkpt lat="45.78188" lon="4.85143">
        <ele>215.4</ele>
        <time>2018-11-11T10:54:53Z</time>
      </trkpt>
      <trkpt lat="45.78183" lon="4.85133">
        <ele>215.4</ele>
        <time>2018-11-11T10:54:57Z</time>
      </trkpt>
      <trkpt lat="45.78178" lon="4.85124">
        <ele>215.7</ele>
        <time>2018-11-11T10:55:01Z</time>
      </trkpt>
      <trkpt lat="45.78173" lon="4.85114">
        <ele>216</ele>
        <time>2018-11-11T10:55:05Z</time>
      </trkpt>
      <trkpt lat="45.78167" lon="4.85104">
        <ele>216.4</ele>
        <time>2018-11-11T10:55:10Z</time>
      </trkpt>
      <trkpt lat="45.78161" lon="4.85097">
        <ele>216.5</ele>
        <time>2018-11-11T10:55:13Z</time>
      </trkpt>
      <trkpt lat="45.78156" lon="4.85087">
        <ele>216.5</ele>
        <time>2018-11-11T10:55:17Z</time>
      </trkpt>
      <trkpt lat="45.7815" lon="4.85076">
        <ele>216.4</ele>
        <time>2018-11-11T10:55:21Z</time>
      </trkpt>
      <trkpt lat="45.78144" lon="4.8507">
        <ele>216.4</ele>
        <time>2018-11-11T10:55:24Z</time>
      </trkpt>
      <trkpt lat="45.78137" lon="4.85064">
        <ele>216.3</ele>
        <time>2018-11-11T10:55:28Z</time>
      </trkpt>
      <trkpt lat="45.7813" lon="4.85057">
        <ele>216.4</ele>
        <time>2018-11-11T10:55:33Z</time>
      </trkpt>
      <trkpt lat="45.78123" lon="4.85049">
        <ele>216.6</ele>
        <time>2018-11-11T10:55:37Z</time>
      </trkpt>
      <trkpt lat="45.78117" lon="4.85042">
        <ele>216.8</ele>
        <time>2018-11-11T10:55:40Z</time>
      </trkpt>
      <trkpt lat="45.78109" lon="4.85038">
        <ele>216.9</ele>
        <time>2018-11-11T10:55:44Z</time>
      </trkpt>
      <trkpt lat="45.78102" lon="4.85031">
        <ele>216.9</ele>
        <time>2018-11-11T10:55:48Z</time>
      </trkpt>
      <trkpt lat="45.78097" lon="4.85025">
        <ele>217</ele>
        <time>2018-11-11T10:55:52Z</time>
      </trkpt>
      <trkpt lat="45.78091" lon="4.85016">
        <ele>217.3</ele>
        <time>2018-11-11T10:55:56Z</time>
      </trkpt>
      <trkpt lat="45.78084" lon="4.85007">
        <ele>217.5</ele>
        <time>2018-11-11T10:56:00Z</time>
      </trkpt>
      <trkpt lat="45.78079" lon="4.85">
        <ele>217.5</ele>
        <time>2018-11-11T10:56:04Z</time>
      </trkpt>
      <trkpt lat="45.78074" lon="4.8499">
        <ele>217.4</ele>
        <time>2018-11-11T10:56:08Z</time>
      </trkpt>
      <trkpt lat="45.78068" lon="4.8498">
        <ele>217.3</ele>
        <time>2018-11-11T10:56:12Z</time>
      </trkpt>
      <trkpt lat="45.78065" lon="4.84971">
        <ele>217.1</ele>
        <time>2018-11-11T10:56:16Z</time>
      </trkpt>
      <trkpt lat="45.78061" lon="4.84959">
        <ele>216.9</ele>
        <time>2018-11-11T10:56:20Z</time>
      </trkpt>
      <trkpt lat="45.78058" lon="4.8495">
        <ele>216.7</ele>
        <time>2018-11-11T10:56:25Z</time>
      </trkpt>
      <trkpt lat="45.78053" lon="4.8494">
        <ele>216.5</ele>
        <time>2018-11-11T10:56:29Z</time>
      </trkpt>
      <trkpt lat="45.78049" lon="4.84929">
        <ele>216.2</ele>
        <time>2018-11-11T10:56:33Z</time>
      </trkpt>
      <trkpt lat="45.78045" lon="4.8492">
        <ele>215.9</ele>
        <time>2018-11-11T10:56:36Z</time>
      </trkpt>
      <trkpt lat="45.78039" lon="4.84909">
        <ele>215.7</ele>
        <time>2018-11-11T10:56:40Z</time>
      </trkpt>
      <trkpt lat="45.78035" lon="4.849">
        <ele>215.6</ele>
        <time>2018-11-11T10:56:44Z</time>
      </trkpt>
      <trkpt lat="45.7803" lon="4.8489">
        <ele>215.5</ele>
        <time>2018-11-11T10:56:48Z</time>
      </trkpt>
      <trkpt lat="45.78025" lon="4.84882">
        <ele>215.5</ele>
        <time>2018-11-11T10:56:52Z</time>
      </trkpt>
      <trkpt lat="45.78019" lon="4.84873">
        <ele>215.5</ele>
        <time>2018-11-11T10:56:56Z</time>
      </trkpt>
      <trkpt lat="45.78011" lon="4.84864">
        <ele>215.4</ele>
        <time>2018-11-11T10:56:59Z</time>
      </trkpt>
      <trkpt lat="45.78006" lon="4.84855">
        <ele>215.3</ele>
        <time>2018-11-11T10:57:02Z</time>
      </trkpt>
      <trkpt lat="45.78001" lon="4.84844">
        <ele>215.4</ele>
        <time>2018-11-11T10:57:05Z</time>
      </trkpt>
      <trkpt lat="45.77996" lon="4.84835">
        <ele>215.4</ele>
        <time>2018-11-11T10:57:08Z</time>
      </trkpt>
      <trkpt lat="45.77988" lon="4.84828">
        <ele>215.4</ele>
        <time>2018-11-11T10:57:12Z</time>
      </trkpt>
      <trkpt lat="45.77982" lon="4.84821">
        <ele>215.3</ele>
        <time>2018-11-11T10:57:17Z</time>
      </trkpt>
      <trkpt lat="45.77978" lon="4.84812">
        <ele>215</ele>
        <time>2018-11-11T10:57:21Z</time>
      </trkpt>
      <trkpt lat="45.77971" lon="4.84803">
        <ele>214.8</ele>
        <time>2018-11-11T10:57:25Z</time>
      </trkpt>
      <trkpt lat="45.77966" lon="4.84795">
        <ele>214.6</ele>
        <time>2018-11-11T10:57:29Z</time>
      </trkpt>
      <trkpt lat="45.7796" lon="4.84788">
        <ele>214.5</ele>
        <time>2018-11-11T10:57:32Z</time>
      </trkpt>
      <trkpt lat="45.77954" lon="4.84781">
        <ele>214.3</ele>
        <time>2018-11-11T10:57:35Z</time>
      </trkpt>
      <trkpt lat="45.77948" lon="4.84774">
        <ele>214</ele>
        <time>2018-11-11T10:57:38Z</time>
      </trkpt>
      <trkpt lat="45.77942" lon="4.84766">
        <ele>213.7</ele>
        <time>2018-11-11T10:57:42Z</time>
      </trkpt>
      <trkpt lat="45.77935" lon="4.8476">
        <ele>213.8</ele>
        <time>2018-11-11T10:57:46Z</time>
      </trkpt>
      <trkpt lat="45.77929" lon="4.84753">
        <ele>214</ele>
        <time>2018-11-11T10:57:49Z</time>
      </trkpt>
      <trkpt lat="45.77921" lon="4.84746">
        <ele>214.4</ele>
        <time>2018-11-11T10:57:53Z</time>
      </trkpt>
      <trkpt lat="45.77915" lon="4.84737">
        <ele>215</ele>
        <time>2018-11-11T10:57:58Z</time>
      </trkpt>
      <trkpt lat="45.7791" lon="4.8473">
        <ele>215.5</ele>
        <time>2018-11-11T10:58:02Z</time>
      </trkpt>
      <trkpt lat="45.77904" lon="4.84724">
        <ele>215.9</ele>
        <time>2018-11-11T10:58:06Z</time>
      </trkpt>
      <trkpt lat="45.77899" lon="4.84716">
        <ele>216.1</ele>
        <time>2018-11-11T10:58:10Z</time>
      </trkpt>
      <trkpt lat="45.77892" lon="4.84709">
        <ele>216.2</ele>
        <time>2018-11-11T10:58:14Z</time>
      </trkpt>
      <trkpt lat="45.77887" lon="4.847">
        <ele>216.6</ele>
        <time>2018-11-11T10:58:18Z</time>
      </trkpt>
      <trkpt lat="45.7788" lon="4.84694">
        <ele>216.8</ele>
        <time>2018-11-11T10:58:21Z</time>
      </trkpt>
      <trkpt lat="45.77874" lon="4.84686">
        <ele>216.7</ele>
        <time>2018-11-11T10:58:27Z</time>
      </trkpt>
      <trkpt lat="45.77867" lon="4.8468">
        <ele>216.5</ele>
        <time>2018-11-11T10:58:31Z</time>
      </trkpt>
      <trkpt lat="45.77861" lon="4.84673">
        <ele>216.3</ele>
        <time>2018-11-11T10:58:36Z</time>
      </trkpt>
      <trkpt lat="45.77853" lon="4.84667">
        <ele>216</ele>
        <time>2018-11-11T10:58:40Z</time>
      </trkpt>
      <trkpt lat="45.77847" lon="4.84659">
        <ele>215.6</ele>
        <time>2018-11-11T10:58:43Z</time>
      </trkpt>
      <trkpt lat="45.77841" lon="4.8465">
        <ele>215.2</ele>
        <time>2018-11-11T10:58:47Z</time>
      </trkpt>
      <trkpt lat="45.77835" lon="4.84641">
        <ele>214.9</ele>
        <time>2018-11-11T10:58:51Z</time>
      </trkpt>
      <trkpt lat="45.77828" lon="4.84635">
        <ele>214.8</ele>
        <time>2018-11-11T10:58:54Z</time>
      </trkpt>
      <trkpt lat="45.77822" lon="4.84627">
        <ele>214.6</ele>
        <time>2018-11-11T10:58:58Z</time>
      </trkpt>
      <trkpt lat="45.77816" lon="4.8462">
        <ele>214.5</ele>
        <time>2018-11-11T10:59:02Z</time>
      </trkpt>
      <trkpt lat="45.7781" lon="4.84611">
        <ele>214.6</ele>
        <time>2018-11-11T10:59:06Z</time>
      </trkpt>
      <trkpt lat="45.77802" lon="4.84603">
        <ele>214.7</ele>
        <time>2018-11-11T10:59:10Z</time>
      </trkpt>
      <trkpt lat="45.77795" lon="4.84596">
        <ele>214.9</ele>
        <time>2018-11-11T10:59:14Z</time>
      </trkpt>
      <trkpt lat="45.77788" lon="4.84589">
        <ele>215.2</ele>
        <time>2018-11-11T10:59:18Z</time>
      </trkpt>
      <trkpt lat="45.77781" lon="4.84581">
        <ele>215.4</ele>
        <time>2018-11-11T10:59:22Z</time>
      </trkpt>
      <trkpt lat="45.77775" lon="4.84575">
        <ele>215.6</ele>
        <time>2018-11-11T10:59:26Z</time>
      </trkpt>
      <trkpt lat="45.77768" lon="4.84568">
        <ele>216</ele>
        <time>2018-11-11T10:59:30Z</time>
      </trkpt>
      <trkpt lat="45.77763" lon="4.84562">
        <ele>216.4</ele>
        <time>2018-11-11T10:59:34Z</time>
      </trkpt>
      <trkpt lat="45.77757" lon="4.84555">
        <ele>216.8</ele>
        <time>2018-11-11T10:59:38Z</time>
      </trkpt>
      <trkpt lat="45.77749" lon="4.84549">
        <ele>217.3</ele>
        <time>2018-11-11T10:59:43Z</time>
      </trkpt>
      <trkpt lat="45.77741" lon="4.84548">
        <ele>217.5</ele>
        <time>2018-11-11T10:59:46Z</time>
      </trkpt>
      <trkpt lat="45.77734" lon="4.84548">
        <ele>217.6</ele>
        <time>2018-11-11T10:59:50Z</time>
      </trkpt>
      <trkpt lat="45.77727" lon="4.84549">
        <ele>217.6</ele>
        <time>2018-11-11T10:59:57Z</time>
      </trkpt>
      <trkpt lat="45.77724" lon="4.84548">
        <ele>217.6</ele>
        <time>2018-11-11T11:00:04Z</time>
      </trkpt>
      <trkpt lat="45.7772" lon="4.84548">
        <ele>218.9</ele>
        <time>2018-11-11T11:00:22Z</time>
      </trkpt>
      <trkpt lat="45.7771" lon="4.84553">
        <ele>219.8</ele>
        <time>2018-11-11T11:00:34Z</time>
      </trkpt>
      <trkpt lat="45.77702" lon="4.8456">
        <ele>219.2</ele>
        <time>2018-11-11T11:00:39Z</time>
      </trkpt>
      <trkpt lat="45.77697" lon="4.84568">
        <ele>218.7</ele>
        <time>2018-11-11T11:00:43Z</time>
      </trkpt>
      <trkpt lat="45.7769" lon="4.84576">
        <ele>218.2</ele>
        <time>2018-11-11T11:00:47Z</time>
      </trkpt>
      <trkpt lat="45.77684" lon="4.84584">
        <ele>217.9</ele>
        <time>2018-11-11T11:00:52Z</time>
      </trkpt>
      <trkpt lat="45.77679" lon="4.84595">
        <ele>217.7</ele>
        <time>2018-11-11T11:00:56Z</time>
      </trkpt>
      <trkpt lat="45.77674" lon="4.84602">
        <ele>217.4</ele>
        <time>2018-11-11T11:01:00Z</time>
      </trkpt>
      <trkpt lat="45.77668" lon="4.8461">
        <ele>217.1</ele>
        <time>2018-11-11T11:01:05Z</time>
      </trkpt>
      <trkpt lat="45.77664" lon="4.84619">
        <ele>217.1</ele>
        <time>2018-11-11T11:01:09Z</time>
      </trkpt>
      <trkpt lat="45.77658" lon="4.8463">
        <ele>217</ele>
        <time>2018-11-11T11:01:14Z</time>
      </trkpt>
      <trkpt lat="45.77652" lon="4.84637">
        <ele>217.1</ele>
        <time>2018-11-11T11:01:17Z</time>
      </trkpt>
      <trkpt lat="45.77648" lon="4.84647">
        <ele>217.2</ele>
        <time>2018-11-11T11:01:21Z</time>
      </trkpt>
      <trkpt lat="45.7764" lon="4.84654">
        <ele>217.3</ele>
        <time>2018-11-11T11:01:25Z</time>
      </trkpt>
      <trkpt lat="45.77634" lon="4.84662">
        <ele>217.3</ele>
        <time>2018-11-11T11:01:29Z</time>
      </trkpt>
      <trkpt lat="45.77628" lon="4.84669">
        <ele>217.2</ele>
        <time>2018-11-11T11:01:33Z</time>
      </trkpt>
      <trkpt lat="45.77622" lon="4.84676">
        <ele>217</ele>
        <time>2018-11-11T11:01:37Z</time>
      </trkpt>
      <trkpt lat="45.77619" lon="4.84687">
        <ele>216.8</ele>
        <time>2018-11-11T11:01:41Z</time>
      </trkpt>
      <trkpt lat="45.77613" lon="4.84697">
        <ele>217</ele>
        <time>2018-11-11T11:01:46Z</time>
      </trkpt>
      <trkpt lat="45.77609" lon="4.84706">
        <ele>217.2</ele>
        <time>2018-11-11T11:01:49Z</time>
      </trkpt>
      <trkpt lat="45.77605" lon="4.84718">
        <ele>217.5</ele>
        <time>2018-11-11T11:01:53Z</time>
      </trkpt>
      <trkpt lat="45.77602" lon="4.84727">
        <ele>217.7</ele>
        <time>2018-11-11T11:01:57Z</time>
      </trkpt>
      <trkpt lat="45.77598" lon="4.84738">
        <ele>218.2</ele>
        <time>2018-11-11T11:02:02Z</time>
      </trkpt>
      <trkpt lat="45.77594" lon="4.84748">
        <ele>218.5</ele>
        <time>2018-11-11T11:02:06Z</time>
      </trkpt>
      <trkpt lat="45.7759" lon="4.84758">
        <ele>218.7</ele>
        <time>2018-11-11T11:02:11Z</time>
      </trkpt>
      <trkpt lat="45.77587" lon="4.84767">
        <ele>218.9</ele>
        <time>2018-11-11T11:02:15Z</time>
      </trkpt>
      <trkpt lat="45.77581" lon="4.84774">
        <ele>218.8</ele>
        <time>2018-11-11T11:02:18Z</time>
      </trkpt>
      <trkpt lat="45.77576" lon="4.84782">
        <ele>218.4</ele>
        <time>2018-11-11T11:02:22Z</time>
      </trkpt>
      <trkpt lat="45.7757" lon="4.84793">
        <ele>217.6</ele>
        <time>2018-11-11T11:02:26Z</time>
      </trkpt>
      <trkpt lat="45.77566" lon="4.84803">
        <ele>217.1</ele>
        <time>2018-11-11T11:02:29Z</time>
      </trkpt>
      <trkpt lat="45.77562" lon="4.84815">
        <ele>216.6</ele>
        <time>2018-11-11T11:02:33Z</time>
      </trkpt>
      <trkpt lat="45.7756" lon="4.84826">
        <ele>216.4</ele>
        <time>2018-11-11T11:02:36Z</time>
      </trkpt>
      <trkpt lat="45.77556" lon="4.84834">
        <ele>216.3</ele>
        <time>2018-11-11T11:02:40Z</time>
      </trkpt>
      <trkpt lat="45.77551" lon="4.84845">
        <ele>215.9</ele>
        <time>2018-11-11T11:02:45Z</time>
      </trkpt>
      <trkpt lat="45.77546" lon="4.84855">
        <ele>215.5</ele>
        <time>2018-11-11T11:02:49Z</time>
      </trkpt>
      <trkpt lat="45.77545" lon="4.84866">
        <ele>215.2</ele>
        <time>2018-11-11T11:02:53Z</time>
      </trkpt>
      <trkpt lat="45.7754" lon="4.84876">
        <ele>214.9</ele>
        <time>2018-11-11T11:02:58Z</time>
      </trkpt>
      <trkpt lat="45.77535" lon="4.84886">
        <ele>214.6</ele>
        <time>2018-11-11T11:03:02Z</time>
      </trkpt>
      <trkpt lat="45.77534" lon="4.84898">
        <ele>214.3</ele>
        <time>2018-11-11T11:03:06Z</time>
      </trkpt>
      <trkpt lat="45.7753" lon="4.84908">
        <ele>214</ele>
        <time>2018-11-11T11:03:10Z</time>
      </trkpt>
      <trkpt lat="45.77526" lon="4.84918">
        <ele>213.7</ele>
        <time>2018-11-11T11:03:14Z</time>
      </trkpt>
      <trkpt lat="45.77521" lon="4.84929">
        <ele>213.5</ele>
        <time>2018-11-11T11:03:18Z</time>
      </trkpt>
      <trkpt lat="45.77516" lon="4.84939">
        <ele>213.3</ele>
        <time>2018-11-11T11:03:22Z</time>
      </trkpt>
      <trkpt lat="45.77513" lon="4.8495">
        <ele>213.2</ele>
        <time>2018-11-11T11:03:26Z</time>
      </trkpt>
      <trkpt lat="45.77508" lon="4.84959">
        <ele>213.3</ele>
        <time>2018-11-11T11:03:30Z</time>
      </trkpt>
      <trkpt lat="45.77504" lon="4.84969">
        <ele>213.4</ele>
        <time>2018-11-11T11:03:33Z</time>
      </trkpt>
      <trkpt lat="45.775" lon="4.84981">
        <ele>213.6</ele>
        <time>2018-11-11T11:03:38Z</time>
      </trkpt>
      <trkpt lat="45.77494" lon="4.84989">
        <ele>213.7</ele>
        <time>2018-11-11T11:03:43Z</time>
      </trkpt>
      <trkpt lat="45.7749" lon="4.84999">
        <ele>213.8</ele>
        <time>2018-11-11T11:03:47Z</time>
      </trkpt>
      <trkpt lat="45.77486" lon="4.85009">
        <ele>214</ele>
        <time>2018-11-11T11:03:51Z</time>
      </trkpt>
      <trkpt lat="45.77482" lon="4.85019">
        <ele>214.2</ele>
        <time>2018-11-11T11:03:55Z</time>
      </trkpt>
      <trkpt lat="45.77476" lon="4.85029">
        <ele>214.3</ele>
        <time>2018-11-11T11:03:59Z</time>
      </trkpt>
      <trkpt lat="45.77471" lon="4.85038">
        <ele>214</ele>
        <time>2018-11-11T11:04:03Z</time>
      </trkpt>
      <trkpt lat="45.77466" lon="4.85046">
        <ele>213.8</ele>
        <time>2018-11-11T11:04:07Z</time>
      </trkpt>
      <trkpt lat="45.77461" lon="4.85058">
        <ele>213.6</ele>
        <time>2018-11-11T11:04:12Z</time>
      </trkpt>
      <trkpt lat="45.77456" lon="4.85068">
        <ele>213.7</ele>
        <time>2018-11-11T11:04:16Z</time>
      </trkpt>
      <trkpt lat="45.7745" lon="4.85078">
        <ele>213.7</ele>
        <time>2018-11-11T11:04:20Z</time>
      </trkpt>
      <trkpt lat="45.77446" lon="4.85088">
        <ele>213.9</ele>
        <time>2018-11-11T11:04:24Z</time>
      </trkpt>
      <trkpt lat="45.77442" lon="4.85097">
        <ele>214.1</ele>
        <time>2018-11-11T11:04:28Z</time>
      </trkpt>
      <trkpt lat="45.77437" lon="4.85107">
        <ele>214.4</ele>
        <time>2018-11-11T11:04:32Z</time>
      </trkpt>
      <trkpt lat="45.77431" lon="4.85116">
        <ele>214.6</ele>
        <time>2018-11-11T11:04:35Z</time>
      </trkpt>
      <trkpt lat="45.77427" lon="4.85125">
        <ele>214.7</ele>
        <time>2018-11-11T11:04:40Z</time>
      </trkpt>
      <trkpt lat="45.77422" lon="4.85135">
        <ele>214.7</ele>
        <time>2018-11-11T11:04:44Z</time>
      </trkpt>
      <trkpt lat="45.77416" lon="4.85142">
        <ele>214.8</ele>
        <time>2018-11-11T11:04:49Z</time>
      </trkpt>
      <trkpt lat="45.77407" lon="4.85146">
        <ele>215.2</ele>
        <time>2018-11-11T11:04:54Z</time>
      </trkpt>
      <trkpt lat="45.77399" lon="4.85145">
        <ele>215.5</ele>
        <time>2018-11-11T11:04:58Z</time>
      </trkpt>
      <trkpt lat="45.77391" lon="4.85148">
        <ele>216.1</ele>
        <time>2018-11-11T11:05:01Z</time>
      </trkpt>
      <trkpt lat="45.77383" lon="4.8515">
        <ele>216.6</ele>
        <time>2018-11-11T11:05:06Z</time>
      </trkpt>
      <trkpt lat="45.77375" lon="4.8515">
        <ele>216.9</ele>
        <time>2018-11-11T11:05:10Z</time>
      </trkpt>
      <trkpt lat="45.77368" lon="4.85153">
        <ele>217</ele>
        <time>2018-11-11T11:05:14Z</time>
      </trkpt>
      <trkpt lat="45.7736" lon="4.85159">
        <ele>217</ele>
        <time>2018-11-11T11:05:17Z</time>
      </trkpt>
      <trkpt lat="45.77354" lon="4.85165">
        <ele>216.9</ele>
        <time>2018-11-11T11:05:21Z</time>
      </trkpt>
      <trkpt lat="45.77348" lon="4.85177">
        <ele>216.8</ele>
        <time>2018-11-11T11:05:25Z</time>
      </trkpt>
      <trkpt lat="45.77345" lon="4.85188">
        <ele>216.6</ele>
        <time>2018-11-11T11:05:30Z</time>
      </trkpt>
      <trkpt lat="45.77343" lon="4.852">
        <ele>216.4</ele>
        <time>2018-11-11T11:05:33Z</time>
      </trkpt>
      <trkpt lat="45.77345" lon="4.85211">
        <ele>216.3</ele>
        <time>2018-11-11T11:05:36Z</time>
      </trkpt>
      <trkpt lat="45.77345" lon="4.85222">
        <ele>216.1</ele>
        <time>2018-11-11T11:05:41Z</time>
      </trkpt>
      <trkpt lat="45.77346" lon="4.85235">
        <ele>215.8</ele>
        <time>2018-11-11T11:05:45Z</time>
      </trkpt>
      <trkpt lat="45.77347" lon="4.85247">
        <ele>215.6</ele>
        <time>2018-11-11T11:05:49Z</time>
      </trkpt>
      <trkpt lat="45.77344" lon="4.8526">
        <ele>215.3</ele>
        <time>2018-11-11T11:05:54Z</time>
      </trkpt>
      <trkpt lat="45.7734" lon="4.85268">
        <ele>215.3</ele>
        <time>2018-11-11T11:05:57Z</time>
      </trkpt>
      <trkpt lat="45.77334" lon="4.85278">
        <ele>215.2</ele>
        <time>2018-11-11T11:06:01Z</time>
      </trkpt>
      <trkpt lat="45.7733" lon="4.85286">
        <ele>215.1</ele>
        <time>2018-11-11T11:06:05Z</time>
      </trkpt>
      <trkpt lat="45.77325" lon="4.85295">
        <ele>215</ele>
        <time>2018-11-11T11:06:09Z</time>
      </trkpt>
      <trkpt lat="45.77321" lon="4.85304">
        <ele>214.9</ele>
        <time>2018-11-11T11:06:13Z</time>
      </trkpt>
      <trkpt lat="45.77318" lon="4.85315">
        <ele>214.7</ele>
        <time>2018-11-11T11:06:17Z</time>
      </trkpt>
      <trkpt lat="45.77314" lon="4.85326">
        <ele>214.5</ele>
        <time>2018-11-11T11:06:21Z</time>
      </trkpt>
      <trkpt lat="45.77309" lon="4.85336">
        <ele>214.4</ele>
        <time>2018-11-11T11:06:25Z</time>
      </trkpt>
      <trkpt lat="45.77305" lon="4.85347">
        <ele>214.3</ele>
        <time>2018-11-11T11:06:30Z</time>
      </trkpt>
      <trkpt lat="45.77301" lon="4.85357">
        <ele>213.9</ele>
        <time>2018-11-11T11:06:34Z</time>
      </trkpt>
      <trkpt lat="45.77297" lon="4.85367">
        <ele>213.1</ele>
        <time>2018-11-11T11:06:38Z</time>
      </trkpt>
      <trkpt lat="45.77294" lon="4.85377">
        <ele>212.6</ele>
        <time>2018-11-11T11:06:42Z</time>
      </trkpt>
      <trkpt lat="45.77293" lon="4.85387">
        <ele>212.5</ele>
        <time>2018-11-11T11:06:45Z</time>
      </trkpt>
      <trkpt lat="45.77292" lon="4.85398">
        <ele>212.7</ele>
        <time>2018-11-11T11:06:49Z</time>
      </trkpt>
      <trkpt lat="45.7729" lon="4.85409">
        <ele>212.9</ele>
        <time>2018-11-11T11:06:53Z</time>
      </trkpt>
      <trkpt lat="45.77294" lon="4.85422">
        <ele>213.1</ele>
        <time>2018-11-11T11:06:58Z</time>
      </trkpt>
      <trkpt lat="45.77301" lon="4.85431">
        <ele>213.4</ele>
        <time>2018-11-11T11:07:02Z</time>
      </trkpt>
      <trkpt lat="45.77306" lon="4.85439">
        <ele>213.9</ele>
        <time>2018-11-11T11:07:06Z</time>
      </trkpt>
      <trkpt lat="45.77312" lon="4.85448">
        <ele>214.4</ele>
        <time>2018-11-11T11:07:10Z</time>
      </trkpt>
      <trkpt lat="45.77317" lon="4.85458">
        <ele>214.8</ele>
        <time>2018-11-11T11:07:14Z</time>
      </trkpt>
      <trkpt lat="45.77322" lon="4.85467">
        <ele>214.9</ele>
        <time>2018-11-11T11:07:18Z</time>
      </trkpt>
      <trkpt lat="45.77326" lon="4.85476">
        <ele>214.9</ele>
        <time>2018-11-11T11:07:22Z</time>
      </trkpt>
      <trkpt lat="45.77333" lon="4.85482">
        <ele>215</ele>
        <time>2018-11-11T11:07:26Z</time>
      </trkpt>
      <trkpt lat="45.77342" lon="4.85483">
        <ele>215.3</ele>
        <time>2018-11-11T11:07:31Z</time>
      </trkpt>
      <trkpt lat="45.77344" lon="4.85496">
        <ele>216</ele>
        <time>2018-11-11T11:07:36Z</time>
      </trkpt>
      <trkpt lat="45.77344" lon="4.85507">
        <ele>216.4</ele>
        <time>2018-11-11T11:07:41Z</time>
      </trkpt>
      <trkpt lat="45.77346" lon="4.85519">
        <ele>216.6</ele>
        <time>2018-11-11T11:07:46Z</time>
      </trkpt>
      <trkpt lat="45.77349" lon="4.85532">
        <ele>216.6</ele>
        <time>2018-11-11T11:07:50Z</time>
      </trkpt>
      <trkpt lat="45.77352" lon="4.85543">
        <ele>216.7</ele>
        <time>2018-11-11T11:07:53Z</time>
      </trkpt>
      <trkpt lat="45.77353" lon="4.85553">
        <ele>216.9</ele>
        <time>2018-11-11T11:07:56Z</time>
      </trkpt>
      <trkpt lat="45.77355" lon="4.85565">
        <ele>216.9</ele>
        <time>2018-11-11T11:08:00Z</time>
      </trkpt>
      <trkpt lat="45.77356" lon="4.85575">
        <ele>216.8</ele>
        <time>2018-11-11T11:08:04Z</time>
      </trkpt>
      <trkpt lat="45.77358" lon="4.85585">
        <ele>216.6</ele>
        <time>2018-11-11T11:08:08Z</time>
      </trkpt>
      <trkpt lat="45.77359" lon="4.85597">
        <ele>216.5</ele>
        <time>2018-11-11T11:08:12Z</time>
      </trkpt>
      <trkpt lat="45.7736" lon="4.85607">
        <ele>216.4</ele>
        <time>2018-11-11T11:08:16Z</time>
      </trkpt>
      <trkpt lat="45.77362" lon="4.85619">
        <ele>216.3</ele>
        <time>2018-11-11T11:08:21Z</time>
      </trkpt>
      <trkpt lat="45.77363" lon="4.85627">
        <ele>216.4</ele>
        <time>2018-11-11T11:08:29Z</time>
      </trkpt>
    </trkseg>
  </trk>
</gpx>